<?xml version="1.0" encoding="UTF-8" standalone="no" ?><gpx xmlns="http://www.topografix.com/GPX/1/1" xmlns:gpxx="http://www.garmin.com/xmlschemas/GpxExtensions/v3" xmlns:wptx1="http://www.garmin.com/xmlschemas/WaypointExtension/v1" xmlns:gpxtpx="http://www.garmin.com/xmlschemas/TrackPointExtension/v1" creator="GuideVTT.com" version="1.1" xmlns:xsi="http://www.w3.org/2001/XMLSchema-instance" xsi:schemaLocation="http://www.topografix.com/GPX/1/1 http://www.topografix.com/GPX/1/1/gpx.xsd http://www.garmin.com/xmlschemas/GpxExtensions/v3 http://www8.garmin.com/xmlschemas/GpxExtensionsv3.xsd http://www.garmin.com/xmlschemas/WaypointExtension/v1 http://www8.garmin.com/xmlschemas/WaypointExtensionv1.xsd http://www.garmin.com/xmlschemas/TrackPointExtension/v1 http://www.garmin.com/xmlschemas/TrackPointExtensionv1.xsd">
<metadata><link href="http://www.garmin.com"><text>Garmin International</text></link><time>2013-06-22T15:13:50Z</time></metadata>
<trk><name>rp_2013_12.gpx</name><extensions><gpxx:TrackExtension><gpxx:DisplayColor>Cyan</gpxx:DisplayColor></gpxx:TrackExtension></extensions><trkseg>
<trkpt lat="46.0874582268" lon="7.5178641547"><ele></ele><time>2013-8-16T15:57:21Z</time></trkpt>
<trkpt lat="46.0872635152" lon="7.5180031266"><ele></ele><time>2013-8-16T15:57:24Z</time></trkpt>
<trkpt lat="46.0872383695" lon="7.5180353969"><ele></ele><time>2013-8-16T15:57:27Z</time></trkpt>
<trkpt lat="46.0872596595" lon="7.5180107541"><ele></ele><time>2013-8-16T15:57:30Z</time></trkpt>
<trkpt lat="46.0872525349" lon="7.5179931521"><ele></ele><time>2013-8-16T15:57:33Z</time></trkpt>
<trkpt lat="46.0872315802" lon="7.5180106703"><ele></ele><time>2013-8-16T15:57:36Z</time></trkpt>
<trkpt lat="46.0872226954" lon="7.5180183817"><ele></ele><time>2013-8-16T15:57:39Z</time></trkpt>
<trkpt lat="46.0872143134" lon="7.5180325471"><ele></ele><time>2013-8-16T15:57:42Z</time></trkpt>
<trkpt lat="46.0872252099" lon="7.5180451199"><ele></ele><time>2013-8-16T15:57:45Z</time></trkpt>
<trkpt lat="46.0872341786" lon="7.5180430245"><ele></ele><time>2013-8-16T15:57:48Z</time></trkpt>
<trkpt lat="46.0872386210" lon="7.5180312898"><ele></ele><time>2013-8-16T15:57:51Z</time></trkpt>
<trkpt lat="46.0872325860" lon="7.5180376600"><ele></ele><time>2013-8-16T15:57:54Z</time></trkpt>
<trkpt lat="46.0872322507" lon="7.5180504844"><ele></ele><time>2013-8-16T15:57:57Z</time></trkpt>
<trkpt lat="46.0872348491" lon="7.5180467125"><ele></ele><time>2013-8-16T15:58:0Z</time></trkpt>
<trkpt lat="46.0872352682" lon="7.5180490594"><ele></ele><time>2013-8-16T15:58:3Z</time></trkpt>
<trkpt lat="46.0872337595" lon="7.5180492271"><ele></ele><time>2013-8-16T15:58:6Z</time></trkpt>
<trkpt lat="46.0872368608" lon="7.5180300325"><ele></ele><time>2013-8-16T15:58:9Z</time></trkpt>
<trkpt lat="46.0872369446" lon="7.5180061441"><ele></ele><time>2013-8-16T15:58:12Z</time></trkpt>
<trkpt lat="46.0872345138" lon="7.5180003606"><ele></ele><time>2013-8-16T15:58:15Z</time></trkpt>
<trkpt lat="46.0872353520" lon="7.5180110894"><ele></ele><time>2013-8-16T15:58:18Z</time></trkpt>
<trkpt lat="46.0872328375" lon="7.5180079881"><ele></ele><time>2013-8-16T15:58:21Z</time></trkpt>
<trkpt lat="46.0872314963" lon="7.5180079881"><ele></ele><time>2013-8-16T15:58:24Z</time></trkpt>
<trkpt lat="46.0872285627" lon="7.5180203095"><ele></ele><time>2013-8-16T15:58:27Z</time></trkpt>
<trkpt lat="46.0872274730" lon="7.5180333853"><ele></ele><time>2013-8-16T15:58:30Z</time></trkpt>
<trkpt lat="46.0872240365" lon="7.5180396717"><ele></ele><time>2013-8-16T15:58:33Z</time></trkpt>
<trkpt lat="46.0872115474" lon="7.5180518255"><ele></ele><time>2013-8-16T15:58:36Z</time></trkpt>
<trkpt lat="46.0871876590" lon="7.5181095768"><ele></ele><time>2013-8-16T15:58:39Z</time></trkpt>
<trkpt lat="46.0872949474" lon="7.5183358043"><ele></ele><time>2013-8-16T15:58:42Z</time></trkpt>
<trkpt lat="46.0871533770" lon="7.5188025925"><ele></ele><time>2013-8-16T15:58:45Z</time></trkpt>
<trkpt lat="46.0868504550" lon="7.5194720551"><ele></ele><time>2013-8-16T15:58:48Z</time></trkpt>
<trkpt lat="46.0862666555" lon="7.5201421883"><ele></ele><time>2013-8-16T15:58:51Z</time></trkpt>
<trkpt lat="46.0859454609" lon="7.5204084814"><ele></ele><time>2013-8-16T15:58:54Z</time></trkpt>
<trkpt lat="46.0857013799" lon="7.5207567494"><ele></ele><time>2013-8-16T15:58:57Z</time></trkpt>
<trkpt lat="46.0854824446" lon="7.5210911036"><ele></ele><time>2013-8-16T15:59:0Z</time></trkpt>
<trkpt lat="46.0852031596" lon="7.5214601588"><ele></ele><time>2013-8-16T15:59:3Z</time></trkpt>
<trkpt lat="46.0849472601" lon="7.5218137074"><ele></ele><time>2013-8-16T15:59:6Z</time></trkpt>
<trkpt lat="46.0845950525" lon="7.5223217346"><ele></ele><time>2013-8-16T15:59:9Z</time></trkpt>
<trkpt lat="46.0845082160" lon="7.5224332977"><ele></ele><time>2013-8-16T15:59:12Z</time></trkpt>
<trkpt lat="46.0844923742" lon="7.5225276779"><ele></ele><time>2013-8-16T15:59:15Z</time></trkpt>
<trkpt lat="46.0844663903" lon="7.5227765366"><ele></ele><time>2013-8-16T15:59:18Z</time></trkpt>
<trkpt lat="46.0841779690" lon="7.5231015868"><ele></ele><time>2013-8-16T15:59:21Z</time></trkpt>
<trkpt lat="46.0838832613" lon="7.5233739149"><ele></ele><time>2013-8-16T15:59:24Z</time></trkpt>
<trkpt lat="46.0835817643" lon="7.5236315746"><ele></ele><time>2013-8-16T15:59:27Z</time></trkpt>
<trkpt lat="46.0832325742" lon="7.5238214247"><ele></ele><time>2013-8-16T15:59:30Z</time></trkpt>
<trkpt lat="46.0831174906" lon="7.5240572914"><ele></ele><time>2013-8-16T15:59:33Z</time></trkpt>
<trkpt lat="46.0832237732" lon="7.5241960119"><ele></ele><time>2013-8-16T15:59:36Z</time></trkpt>
<trkpt lat="46.0832439736" lon="7.5243709423"><ele></ele><time>2013-8-16T15:59:39Z</time></trkpt>
<trkpt lat="46.0830855556" lon="7.5245687552"><ele></ele><time>2013-8-16T15:59:42Z</time></trkpt>
<trkpt lat="46.0829454940" lon="7.5247462839"><ele></ele><time>2013-8-16T15:59:45Z</time></trkpt>
<trkpt lat="46.0827977210" lon="7.5248892792"><ele></ele><time>2013-8-16T15:59:48Z</time></trkpt>
<trkpt lat="46.0827627685" lon="7.5249338709"><ele></ele><time>2013-8-16T15:59:51Z</time></trkpt>
<trkpt lat="46.0826588329" lon="7.5252787862"><ele></ele><time>2013-8-16T15:59:54Z</time></trkpt>
<trkpt lat="46.0825756006" lon="7.5255515333"><ele></ele><time>2013-8-16T15:59:57Z</time></trkpt>
<trkpt lat="46.0824549850" lon="7.5257981289"><ele></ele><time>2013-8-16T16:0:0Z</time></trkpt>
<trkpt lat="46.0823998321" lon="7.5259252824"><ele></ele><time>2013-8-16T16:0:3Z</time></trkpt>
<trkpt lat="46.0823979881" lon="7.5261007156"><ele></ele><time>2013-8-16T16:0:6Z</time></trkpt>
<trkpt lat="46.0822876822" lon="7.5262168888"><ele></ele><time>2013-8-16T16:0:9Z</time></trkpt>
<trkpt lat="46.0821472853" lon="7.5263481494"><ele></ele><time>2013-8-16T16:0:12Z</time></trkpt>
<trkpt lat="46.0820343811" lon="7.5265120994"><ele></ele><time>2013-8-16T16:0:15Z</time></trkpt>
<trkpt lat="46.0819529928" lon="7.5266950764"><ele></ele><time>2013-8-16T16:0:18Z</time></trkpt>
<trkpt lat="46.0818578582" lon="7.5268439390"><ele></ele><time>2013-8-16T16:0:21Z</time></trkpt>
<trkpt lat="46.0818470456" lon="7.5268833339"><ele></ele><time>2013-8-16T16:0:24Z</time></trkpt>
<trkpt lat="46.0819528252" lon="7.5269508921"><ele></ele><time>2013-8-16T16:0:27Z</time></trkpt>
<trkpt lat="46.0820889473" lon="7.5269933045"><ele></ele><time>2013-8-16T16:0:30Z</time></trkpt>
<trkpt lat="46.0821943078" lon="7.5269992556"><ele></ele><time>2013-8-16T16:0:33Z</time></trkpt>
<trkpt lat="46.0823465232" lon="7.5270156842"><ele></ele><time>2013-8-16T16:0:36Z</time></trkpt>
<trkpt lat="46.0825124849" lon="7.5269876048"><ele></ele><time>2013-8-16T16:0:39Z</time></trkpt>
<trkpt lat="46.0825252254" lon="7.5269928016"><ele></ele><time>2013-8-16T16:0:42Z</time></trkpt>
<trkpt lat="46.0825059470" lon="7.5270472839"><ele></ele><time>2013-8-16T16:0:45Z</time></trkpt>
<trkpt lat="46.0823912825" lon="7.5271931291"><ele></ele><time>2013-8-16T16:0:48Z</time></trkpt>
<trkpt lat="46.0822477844" lon="7.5273153372"><ele></ele><time>2013-8-16T16:0:51Z</time></trkpt>
<trkpt lat="46.0821114108" lon="7.5273979828"><ele></ele><time>2013-8-16T16:0:54Z</time></trkpt>
<trkpt lat="46.0819923040" lon="7.5274975598"><ele></ele><time>2013-8-16T16:0:57Z</time></trkpt>
<trkpt lat="46.0819049645" lon="7.5275488570"><ele></ele><time>2013-8-16T16:1:0Z</time></trkpt>
<trkpt lat="46.0818488896" lon="7.5276161637"><ele></ele><time>2013-8-16T16:1:3Z</time></trkpt>
<trkpt lat="46.0816871189" lon="7.5278412178"><ele></ele><time>2013-8-16T16:1:6Z</time></trkpt>
<trkpt lat="46.0814986937" lon="7.5279664434"><ele></ele><time>2013-8-16T16:1:9Z</time></trkpt>
<trkpt lat="46.0812537745" lon="7.5281238556"><ele></ele><time>2013-8-16T16:1:12Z</time></trkpt>
<trkpt lat="46.0810209252" lon="7.5281344168"><ele></ele><time>2013-8-16T16:1:15Z</time></trkpt>
<trkpt lat="46.0808636807" lon="7.5280884840"><ele></ele><time>2013-8-16T16:1:18Z</time></trkpt>
<trkpt lat="46.0808179993" lon="7.5280785095"><ele></ele><time>2013-8-16T16:1:21Z</time></trkpt>
<trkpt lat="46.0805203579" lon="7.5281381886"><ele></ele><time>2013-8-16T16:1:24Z</time></trkpt>
<trkpt lat="46.0804378800" lon="7.5281673577"><ele></ele><time>2013-8-16T16:1:27Z</time></trkpt>
<trkpt lat="46.0802435875" lon="7.5282592233"><ele></ele><time>2013-8-16T16:1:30Z</time></trkpt>
<trkpt lat="46.0801781248" lon="7.5283058267"><ele></ele><time>2013-8-16T16:1:33Z</time></trkpt>
<trkpt lat="46.0800844152" lon="7.5283713732"><ele></ele><time>2013-8-16T16:1:36Z</time></trkpt>
<trkpt lat="46.0801170208" lon="7.5284543540"><ele></ele><time>2013-8-16T16:1:39Z</time></trkpt>
<trkpt lat="46.0801532306" lon="7.5284411944"><ele></ele><time>2013-8-16T16:1:42Z</time></trkpt>
<trkpt lat="46.0802953877" lon="7.5284284540"><ele></ele><time>2013-8-16T16:1:45Z</time></trkpt>
<trkpt lat="46.0804347787" lon="7.5284570362"><ele></ele><time>2013-8-16T16:1:48Z</time></trkpt>
<trkpt lat="46.0804000776" lon="7.5285466388"><ele></ele><time>2013-8-16T16:1:51Z</time></trkpt>
<trkpt lat="46.0803832300" lon="7.5285732094"><ele></ele><time>2013-8-16T16:1:54Z</time></trkpt>
<trkpt lat="46.0802572500" lon="7.5286730379"><ele></ele><time>2013-8-16T16:1:57Z</time></trkpt>
<trkpt lat="46.0801537335" lon="7.5287537556"><ele></ele><time>2013-8-16T16:2:0Z</time></trkpt>
<trkpt lat="46.0801719222" lon="7.5288125128"><ele></ele><time>2013-8-16T16:2:3Z</time></trkpt>
<trkpt lat="46.0803790390" lon="7.5288289413"><ele></ele><time>2013-8-16T16:2:6Z</time></trkpt>
<trkpt lat="46.0805564839" lon="7.5287685916"><ele></ele><time>2013-8-16T16:2:9Z</time></trkpt>
<trkpt lat="46.0807463340" lon="7.5286073238"><ele></ele><time>2013-8-16T16:2:12Z</time></trkpt>
<trkpt lat="46.0808938555" lon="7.5286582019"><ele></ele><time>2013-8-16T16:2:15Z</time></trkpt>
<trkpt lat="46.0808702186" lon="7.5286952499"><ele></ele><time>2013-8-16T16:2:18Z</time></trkpt>
<trkpt lat="46.0808492638" lon="7.5287172105"><ele></ele><time>2013-8-16T16:2:21Z</time></trkpt>
<trkpt lat="46.0808172449" lon="7.5287781470"><ele></ele><time>2013-8-16T16:2:24Z</time></trkpt>
<trkpt lat="46.0807965416" lon="7.5288127642"><ele></ele><time>2013-8-16T16:2:27Z</time></trkpt>
<trkpt lat="46.0806934442" lon="7.5290019438"><ele></ele><time>2013-8-16T16:2:30Z</time></trkpt>
<trkpt lat="46.0806583241" lon="7.5290431827"><ele></ele><time>2013-8-16T16:2:33Z</time></trkpt>
<trkpt lat="46.0804841481" lon="7.5293060392"><ele></ele><time>2013-8-16T16:2:36Z</time></trkpt>
<trkpt lat="46.0802673083" lon="7.5295395590"><ele></ele><time>2013-8-16T16:2:39Z</time></trkpt>
<trkpt lat="46.0800290108" lon="7.5296981446"><ele></ele><time>2013-8-16T16:2:42Z</time></trkpt>
<trkpt lat="46.0798332933" lon="7.5299093686"><ele></ele><time>2013-8-16T16:2:45Z</time></trkpt>
<trkpt lat="46.0797713511" lon="7.5301573891"><ele></ele><time>2013-8-16T16:2:48Z</time></trkpt>
<trkpt lat="46.0798440222" lon="7.5304615684"><ele></ele><time>2013-8-16T16:2:51Z</time></trkpt>
<trkpt lat="46.0797524080" lon="7.5308913086"><ele></ele><time>2013-8-16T16:2:54Z</time></trkpt>
<trkpt lat="46.0797534138" lon="7.5313231442"><ele></ele><time>2013-8-16T16:2:57Z</time></trkpt>
<trkpt lat="46.0797707643" lon="7.5316934567"><ele></ele><time>2013-8-16T16:3:0Z</time></trkpt>
<trkpt lat="46.0796752106" lon="7.5320772640"><ele></ele><time>2013-8-16T16:3:3Z</time></trkpt>
<trkpt lat="46.0795767233" lon="7.5323291402"><ele></ele><time>2013-8-16T16:3:6Z</time></trkpt>
<trkpt lat="46.0795227438" lon="7.5326209143"><ele></ele><time>2013-8-16T16:3:9Z</time></trkpt>
<trkpt lat="46.0795185529" lon="7.5329188909"><ele></ele><time>2013-8-16T16:3:12Z</time></trkpt>
<trkpt lat="46.0795105062" lon="7.5331490580"><ele></ele><time>2013-8-16T16:3:15Z</time></trkpt>
<trkpt lat="46.0795071535" lon="7.5334267505"><ele></ele><time>2013-8-16T16:3:18Z</time></trkpt>
<trkpt lat="46.0794183891" lon="7.5336335320"><ele></ele><time>2013-8-16T16:3:21Z</time></trkpt>
<trkpt lat="46.0793750547" lon="7.5338001642"><ele></ele><time>2013-8-16T16:3:24Z</time></trkpt>
<trkpt lat="46.0794209037" lon="7.5339192711"><ele></ele><time>2013-8-16T16:3:27Z</time></trkpt>
<trkpt lat="46.0794371646" lon="7.5339058600"><ele></ele><time>2013-8-16T16:3:30Z</time></trkpt>
<trkpt lat="46.0794817563" lon="7.5337116513"><ele></ele><time>2013-8-16T16:3:33Z</time></trkpt>
<trkpt lat="46.0795301199" lon="7.5336623657"><ele></ele><time>2013-8-16T16:3:36Z</time></trkpt>
<trkpt lat="46.0795969237" lon="7.5335982442"><ele></ele><time>2013-8-16T16:3:39Z</time></trkpt>
<trkpt lat="46.0797363147" lon="7.5332829170"><ele></ele><time>2013-8-16T16:3:42Z</time></trkpt>
<trkpt lat="46.0799488798" lon="7.5330335554"><ele></ele><time>2013-8-16T16:3:45Z</time></trkpt>
<trkpt lat="46.0800896958" lon="7.5328544341"><ele></ele><time>2013-8-16T16:3:48Z</time></trkpt>
<trkpt lat="46.0801506322" lon="7.5327784102"><ele></ele><time>2013-8-16T16:3:51Z</time></trkpt>
<trkpt lat="46.0801823158" lon="7.5326999556"><ele></ele><time>2013-8-16T16:3:54Z</time></trkpt>
<trkpt lat="46.0803298373" lon="7.5324253645"><ele></ele><time>2013-8-16T16:3:57Z</time></trkpt>
<trkpt lat="46.0804252233" lon="7.5322837103"><ele></ele><time>2013-8-16T16:4:0Z</time></trkpt>
<trkpt lat="46.0805315059" lon="7.5320092868"><ele></ele><time>2013-8-16T16:4:3Z</time></trkpt>
<trkpt lat="46.0806022491" lon="7.5317632779"><ele></ele><time>2013-8-16T16:4:6Z</time></trkpt>
<trkpt lat="46.0806961264" lon="7.5314912852"><ele></ele><time>2013-8-16T16:4:9Z</time></trkpt>
<trkpt lat="46.0807519499" lon="7.5312834140"><ele></ele><time>2013-8-16T16:4:12Z</time></trkpt>
<trkpt lat="46.0808187537" lon="7.5313601084"><ele></ele><time>2013-8-16T16:4:15Z</time></trkpt>
<trkpt lat="46.0807622597" lon="7.5316867512"><ele></ele><time>2013-8-16T16:4:18Z</time></trkpt>
<trkpt lat="46.0807325877" lon="7.5319506135"><ele></ele><time>2013-8-16T16:4:21Z</time></trkpt>
<trkpt lat="46.0806728248" lon="7.5322882365"><ele></ele><time>2013-8-16T16:4:24Z</time></trkpt>
<trkpt lat="46.0805999860" lon="7.5326287933"><ele></ele><time>2013-8-16T16:4:27Z</time></trkpt>
<trkpt lat="46.0805333499" lon="7.5329136103"><ele></ele><time>2013-8-16T16:4:30Z</time></trkpt>
<trkpt lat="46.0805194359" lon="7.5329823419"><ele></ele><time>2013-8-16T16:4:33Z</time></trkpt>
<trkpt lat="46.0804646183" lon="7.5331966672"><ele></ele><time>2013-8-16T16:4:36Z</time></trkpt>
<trkpt lat="46.0803975631" lon="7.5333940610"><ele></ele><time>2013-8-16T16:4:39Z</time></trkpt>
<trkpt lat="46.0803614371" lon="7.5336263236"><ele></ele><time>2013-8-16T16:4:42Z</time></trkpt>
<trkpt lat="46.0803706571" lon="7.5336624496"><ele></ele><time>2013-8-16T16:4:45Z</time></trkpt>
<trkpt lat="46.0803891812" lon="7.5336289220"><ele></ele><time>2013-8-16T16:4:48Z</time></trkpt>
<trkpt lat="46.0805067793" lon="7.5335544907"><ele></ele><time>2013-8-16T16:4:51Z</time></trkpt>
<trkpt lat="46.0806200188" lon="7.5334141776"><ele></ele><time>2013-8-16T16:4:54Z</time></trkpt>
<trkpt lat="46.0806772672" lon="7.5332362298"><ele></ele><time>2013-8-16T16:4:57Z</time></trkpt>
<trkpt lat="46.0808447376" lon="7.5329007022"><ele></ele><time>2013-8-16T16:5:0Z</time></trkpt>
<trkpt lat="46.0809209291" lon="7.5327689387"><ele></ele><time>2013-8-16T16:5:3Z</time></trkpt>
<trkpt lat="46.0811301414" lon="7.5324607361"><ele></ele><time>2013-8-16T16:5:6Z</time></trkpt>
<trkpt lat="46.0812625755" lon="7.5321493484"><ele></ele><time>2013-8-16T16:5:9Z</time></trkpt>
<trkpt lat="46.0813598055" lon="7.5317308400"><ele></ele><time>2013-8-16T16:5:12Z</time></trkpt>
<trkpt lat="46.0815053992" lon="7.5312239863"><ele></ele><time>2013-8-16T16:5:15Z</time></trkpt>
<trkpt lat="46.0817193054" lon="7.5310327951"><ele></ele><time>2013-8-16T16:5:18Z</time></trkpt>
<trkpt lat="46.0819073953" lon="7.5310870260"><ele></ele><time>2013-8-16T16:5:21Z</time></trkpt>
<trkpt lat="46.0821285937" lon="7.5310918037"><ele></ele><time>2013-8-16T16:5:24Z</time></trkpt>
<trkpt lat="46.0823314358" lon="7.5311358925"><ele></ele><time>2013-8-16T16:5:27Z</time></trkpt>
<trkpt lat="46.0824902728" lon="7.5311264209"><ele></ele><time>2013-8-16T16:5:30Z</time></trkpt>
<trkpt lat="46.0827128962" lon="7.5309631415"><ele></ele><time>2013-8-16T16:5:33Z</time></trkpt>
<trkpt lat="46.0829143133" lon="7.5308784004"><ele></ele><time>2013-8-16T16:5:36Z</time></trkpt>
<trkpt lat="46.0831390321" lon="7.5309053902"><ele></ele><time>2013-8-16T16:5:39Z</time></trkpt>
<trkpt lat="46.0833094362" lon="7.5309413485"><ele></ele><time>2013-8-16T16:5:42Z</time></trkpt>
<trkpt lat="46.0835189838" lon="7.5309232436"><ele></ele><time>2013-8-16T16:5:45Z</time></trkpt>
<trkpt lat="46.0836976022" lon="7.5307895523"><ele></ele><time>2013-8-16T16:5:48Z</time></trkpt>
<trkpt lat="46.0838012863" lon="7.5307204854"><ele></ele><time>2013-8-16T16:5:51Z</time></trkpt>
<trkpt lat="46.0838857759" lon="7.5306585431"><ele></ele><time>2013-8-16T16:5:54Z</time></trkpt>
<trkpt lat="46.0839544237" lon="7.5305830222"><ele></ele><time>2013-8-16T16:5:57Z</time></trkpt>
<trkpt lat="46.0841910448" lon="7.5305007957"><ele></ele><time>2013-8-16T16:6:0Z</time></trkpt>
<trkpt lat="46.0843908694" lon="7.5303210877"><ele></ele><time>2013-8-16T16:6:3Z</time></trkpt>
<trkpt lat="46.0846066196" lon="7.5301961135"><ele></ele><time>2013-8-16T16:6:6Z</time></trkpt>
<trkpt lat="46.0847768560" lon="7.5300854724"><ele></ele><time>2013-8-16T16:6:9Z</time></trkpt>
<trkpt lat="46.0849897563" lon="7.5300222728"><ele></ele><time>2013-8-16T16:6:12Z</time></trkpt>
<trkpt lat="46.0851554666" lon="7.5299685448"><ele></ele><time>2013-8-16T16:6:15Z</time></trkpt>
<trkpt lat="46.0853608232" lon="7.5299387891"><ele></ele><time>2013-8-16T16:6:18Z</time></trkpt>
<trkpt lat="46.0853830352" lon="7.5299792737"><ele></ele><time>2013-8-16T16:6:21Z</time></trkpt>
<trkpt lat="46.0852678679" lon="7.5300383661"><ele></ele><time>2013-8-16T16:6:24Z</time></trkpt>
<trkpt lat="46.0851770919" lon="7.5300852209"><ele></ele><time>2013-8-16T16:6:27Z</time></trkpt>
<trkpt lat="46.0850638524" lon="7.5302004721"><ele></ele><time>2013-8-16T16:6:30Z</time></trkpt>
<trkpt lat="46.0848828871" lon="7.5303432997"><ele></ele><time>2013-8-16T16:6:33Z</time></trkpt>
<trkpt lat="46.0847090464" lon="7.5305821840"><ele></ele><time>2013-8-16T16:6:36Z</time></trkpt>
<trkpt lat="46.0845265724" lon="7.5308183860"><ele></ele><time>2013-8-16T16:6:39Z</time></trkpt>
<trkpt lat="46.0843003448" lon="7.5310773868"><ele></ele><time>2013-8-16T16:6:42Z</time></trkpt>
<trkpt lat="46.0840531625" lon="7.5313148461"><ele></ele><time>2013-8-16T16:6:45Z</time></trkpt>
<trkpt lat="46.0840092413" lon="7.5314133335"><ele></ele><time>2013-8-16T16:6:48Z</time></trkpt>
<trkpt lat="46.0840243287" lon="7.5314773712"><ele></ele><time>2013-8-16T16:6:51Z</time></trkpt>
<trkpt lat="46.0840897914" lon="7.5315450970"><ele></ele><time>2013-8-16T16:6:54Z</time></trkpt>
<trkpt lat="46.0842390731" lon="7.5314732641"><ele></ele><time>2013-8-16T16:6:57Z</time></trkpt>
<trkpt lat="46.0844181105" lon="7.5313847512"><ele></ele><time>2013-8-16T16:7:0Z</time></trkpt>
<trkpt lat="46.0845996626" lon="7.5313016865"><ele></ele><time>2013-8-16T16:7:3Z</time></trkpt>
<trkpt lat="46.0847745929" lon="7.5312301051"><ele></ele><time>2013-8-16T16:7:6Z</time></trkpt>
<trkpt lat="46.0849625152" lon="7.5311322045"><ele></ele><time>2013-8-16T16:7:9Z</time></trkpt>
<trkpt lat="46.0851581488" lon="7.5310581923"><ele></ele><time>2013-8-16T16:7:12Z</time></trkpt>
<trkpt lat="46.0854555387" lon="7.5309290271"><ele></ele><time>2013-8-16T16:7:15Z</time></trkpt>
<trkpt lat="46.0857048165" lon="7.5309458748"><ele></ele><time>2013-8-16T16:7:18Z</time></trkpt>
<trkpt lat="46.0859827604" lon="7.5309550110"><ele></ele><time>2013-8-16T16:7:21Z</time></trkpt>
<trkpt lat="46.0861699283" lon="7.5309144426"><ele></ele><time>2013-8-16T16:7:24Z</time></trkpt>
<trkpt lat="46.0864892788" lon="7.5309156999"><ele></ele><time>2013-8-16T16:7:27Z</time></trkpt>
<trkpt lat="46.0866974015" lon="7.5309033785"><ele></ele><time>2013-8-16T16:7:30Z</time></trkpt>
<trkpt lat="46.0869297478" lon="7.5308519974"><ele></ele><time>2013-8-16T16:7:33Z</time></trkpt>
<trkpt lat="46.0871411394" lon="7.5307500735"><ele></ele><time>2013-8-16T16:7:36Z</time></trkpt>
<trkpt lat="46.0873928480" lon="7.5306271110"><ele></ele><time>2013-8-16T16:7:39Z</time></trkpt>
<trkpt lat="46.0876339953" lon="7.5305895600"><ele></ele><time>2013-8-16T16:7:42Z</time></trkpt>
<trkpt lat="46.0878071655" lon="7.5305333175"><ele></ele><time>2013-8-16T16:7:45Z</time></trkpt>
<trkpt lat="46.0880518332" lon="7.5305210799"><ele></ele><time>2013-8-16T16:7:48Z</time></trkpt>
<trkpt lat="46.0883006919" lon="7.5305254385"><ele></ele><time>2013-8-16T16:7:51Z</time></trkpt>
<trkpt lat="46.0884878598" lon="7.5305231754"><ele></ele><time>2013-8-16T16:7:54Z</time></trkpt>
<trkpt lat="46.0885683261" lon="7.5305125304"><ele></ele><time>2013-8-16T16:7:57Z</time></trkpt>
<trkpt lat="46.0887757782" lon="7.5304925814"><ele></ele><time>2013-8-16T16:8:0Z</time></trkpt>
<trkpt lat="46.0889668018" lon="7.5305677671"><ele></ele><time>2013-8-16T16:8:3Z</time></trkpt>
<trkpt lat="46.0891467612" lon="7.5306364149"><ele></ele><time>2013-8-16T16:8:6Z</time></trkpt>
<trkpt lat="46.0892633535" lon="7.5306771509"><ele></ele><time>2013-8-16T16:8:9Z</time></trkpt>
<trkpt lat="46.0893037543" lon="7.5307167973"><ele></ele><time>2013-8-16T16:8:12Z</time></trkpt>
<trkpt lat="46.0892956238" lon="7.5308154523"><ele></ele><time>2013-8-16T16:8:15Z</time></trkpt>
<trkpt lat="46.0891206935" lon="7.5309480540"><ele></ele><time>2013-8-16T16:8:18Z</time></trkpt>
<trkpt lat="46.0889227968" lon="7.5311091542"><ele></ele><time>2013-8-16T16:8:21Z</time></trkpt>
<trkpt lat="46.0885905381" lon="7.5312575139"><ele></ele><time>2013-8-16T16:8:24Z</time></trkpt>
<trkpt lat="46.0883646458" lon="7.5315168500"><ele></ele><time>2013-8-16T16:8:27Z</time></trkpt>
<trkpt lat="46.0881743766" lon="7.5316562410"><ele></ele><time>2013-8-16T16:8:30Z</time></trkpt>
<trkpt lat="46.0879048146" lon="7.5318489410"><ele></ele><time>2013-8-16T16:8:33Z</time></trkpt>
<trkpt lat="46.0876443051" lon="7.5320305768"><ele></ele><time>2013-8-16T16:8:36Z</time></trkpt>
<trkpt lat="46.0874268785" lon="7.5321829598"><ele></ele><time>2013-8-16T16:8:39Z</time></trkpt>
<trkpt lat="46.0872055963" lon="7.5322630070"><ele></ele><time>2013-8-16T16:8:42Z</time></trkpt>
<trkpt lat="46.0869833082" lon="7.5324148033"><ele></ele><time>2013-8-16T16:8:45Z</time></trkpt>
<trkpt lat="46.0867856629" lon="7.5325036515"><ele></ele><time>2013-8-16T16:8:48Z</time></trkpt>
<trkpt lat="46.0864981636" lon="7.5326752290"><ele></ele><time>2013-8-16T16:8:51Z</time></trkpt>
<trkpt lat="46.0863067210" lon="7.5328231696"><ele></ele><time>2013-8-16T16:8:54Z</time></trkpt>
<trkpt lat="46.0860834271" lon="7.5331098307"><ele></ele><time>2013-8-16T16:8:57Z</time></trkpt>
<trkpt lat="46.0858830996" lon="7.5333612040"><ele></ele><time>2013-8-16T16:9:0Z</time></trkpt>
<trkpt lat="46.0856641643" lon="7.5335700810"><ele></ele><time>2013-8-16T16:9:3Z</time></trkpt>
<trkpt lat="46.0854976997" lon="7.5338165089"><ele></ele><time>2013-8-16T16:9:6Z</time></trkpt>
<trkpt lat="46.0854373500" lon="7.5339243840"><ele></ele><time>2013-8-16T16:9:9Z</time></trkpt>
<trkpt lat="46.0854246095" lon="7.5339566544"><ele></ele><time>2013-8-16T16:9:12Z</time></trkpt>
<trkpt lat="46.0853594821" lon="7.5341309980"><ele></ele><time>2013-8-16T16:9:15Z</time></trkpt>
<trkpt lat="46.0853501782" lon="7.5342236180"><ele></ele><time>2013-8-16T16:9:18Z</time></trkpt>
<trkpt lat="46.0853478312" lon="7.5342556369"><ele></ele><time>2013-8-16T16:9:21Z</time></trkpt>
<trkpt lat="46.0853334982" lon="7.5342822075"><ele></ele><time>2013-8-16T16:9:24Z</time></trkpt>
<trkpt lat="46.0852420516" lon="7.5345004722"><ele></ele><time>2013-8-16T16:9:27Z</time></trkpt>
<trkpt lat="46.0851219390" lon="7.5346162263"><ele></ele><time>2013-8-16T16:9:30Z</time></trkpt>
<trkpt lat="46.0850320011" lon="7.5348823518"><ele></ele><time>2013-8-16T16:9:33Z</time></trkpt>
<trkpt lat="46.0850273911" lon="7.5348952599"><ele></ele><time>2013-8-16T16:9:36Z</time></trkpt>
<trkpt lat="46.0849812068" lon="7.5349639077"><ele></ele><time>2013-8-16T16:9:39Z</time></trkpt>
<trkpt lat="46.0849570669" lon="7.5350694358"><ele></ele><time>2013-8-16T16:9:42Z</time></trkpt>
<trkpt lat="46.0849799495" lon="7.5351048913"><ele></ele><time>2013-8-16T16:9:45Z</time></trkpt>
<trkpt lat="46.0850002337" lon="7.5351088308"><ele></ele><time>2013-8-16T16:9:48Z</time></trkpt>
<trkpt lat="46.0850337613" lon="7.5350894686"><ele></ele><time>2013-8-16T16:9:51Z</time></trkpt>
<trkpt lat="46.0850762576" lon="7.5350395124"><ele></ele><time>2013-8-16T16:9:54Z</time></trkpt>
<trkpt lat="46.0852410458" lon="7.5348510034"><ele></ele><time>2013-8-16T16:9:57Z</time></trkpt>
<trkpt lat="46.0854676925" lon="7.5346934237"><ele></ele><time>2013-8-16T16:10:0Z</time></trkpt>
<trkpt lat="46.0856150463" lon="7.5344651006"><ele></ele><time>2013-8-16T16:10:3Z</time></trkpt>
<trkpt lat="46.0857973527" lon="7.5343961176"><ele></ele><time>2013-8-16T16:10:6Z</time></trkpt>
<trkpt lat="46.0860190541" lon="7.5342818722"><ele></ele><time>2013-8-16T16:10:9Z</time></trkpt>
<trkpt lat="46.0863125045" lon="7.5342318323"><ele></ele><time>2013-8-16T16:10:12Z</time></trkpt>
<trkpt lat="46.0863360576" lon="7.5342310779"><ele></ele><time>2013-8-16T16:10:15Z</time></trkpt>
<trkpt lat="46.0863516480" lon="7.5342268869"><ele></ele><time>2013-8-16T16:10:18Z</time></trkpt>
<trkpt lat="46.0863488819" lon="7.5342226960"><ele></ele><time>2013-8-16T16:10:21Z</time></trkpt>
<trkpt lat="46.0863512289" lon="7.5342180859"><ele></ele><time>2013-8-16T16:10:24Z</time></trkpt>
<trkpt lat="46.0863497201" lon="7.5342237018"><ele></ele><time>2013-8-16T16:10:27Z</time></trkpt>
<trkpt lat="46.0863485467" lon="7.5342230313"><ele></ele><time>2013-8-16T16:10:30Z</time></trkpt>
<trkpt lat="46.0863487981" lon="7.5342181697"><ele></ele><time>2013-8-16T16:10:33Z</time></trkpt>
<trkpt lat="46.0863508098" lon="7.5342108775"><ele></ele><time>2013-8-16T16:10:36Z</time></trkpt>
<trkpt lat="46.0863587726" lon="7.5342206005"><ele></ele><time>2013-8-16T16:10:39Z</time></trkpt>
<trkpt lat="46.0863603652" lon="7.5342200138"><ele></ele><time>2013-8-16T16:10:42Z</time></trkpt>
<trkpt lat="46.0863619577" lon="7.5342210196"><ele></ele><time>2013-8-16T16:10:45Z</time></trkpt>
<trkpt lat="46.0863650590" lon="7.5342411362"><ele></ele><time>2013-8-16T16:10:48Z</time></trkpt>
<trkpt lat="46.0863545816" lon="7.5342635158"><ele></ele><time>2013-8-16T16:10:51Z</time></trkpt>
<trkpt lat="46.0863511451" lon="7.5342352688"><ele></ele><time>2013-8-16T16:10:54Z</time></trkpt>
<trkpt lat="46.0863435175" lon="7.5342354365"><ele></ele><time>2013-8-16T16:10:57Z</time></trkpt>
<trkpt lat="46.0863442719" lon="7.5342295691"><ele></ele><time>2013-8-16T16:11:0Z</time></trkpt>
<trkpt lat="46.0863457806" lon="7.5342338439"><ele></ele><time>2013-8-16T16:11:3Z</time></trkpt>
<trkpt lat="46.0863475408" lon="7.5342227798"><ele></ele><time>2013-8-16T16:11:6Z</time></trkpt>
<trkpt lat="46.0863450263" lon="7.5342273060"><ele></ele><time>2013-8-16T16:11:9Z</time></trkpt>
<trkpt lat="46.0863391589" lon="7.5342328381"><ele></ele><time>2013-8-16T16:11:12Z</time></trkpt>
<trkpt lat="46.0863446910" lon="7.5342291500"><ele></ele><time>2013-8-16T16:11:15Z</time></trkpt>
<trkpt lat="46.0863467865" lon="7.5342255458"><ele></ele><time>2013-8-16T16:11:18Z</time></trkpt>
<trkpt lat="46.0863287654" lon="7.5342347659"><ele></ele><time>2013-8-16T16:11:21Z</time></trkpt>
<trkpt lat="46.0863127559" lon="7.5342506077"><ele></ele><time>2013-8-16T16:11:24Z</time></trkpt>
<trkpt lat="46.0862938967" lon="7.5343911722"><ele></ele><time>2013-8-16T16:11:27Z</time></trkpt>
<trkpt lat="46.0862285178" lon="7.5345063396"><ele></ele><time>2013-8-16T16:11:30Z</time></trkpt>
<trkpt lat="46.0861701798" lon="7.5345604867"><ele></ele><time>2013-8-16T16:11:33Z</time></trkpt>
<trkpt lat="46.0861227382" lon="7.5346138794"><ele></ele><time>2013-8-16T16:11:36Z</time></trkpt>
<trkpt lat="46.0860909708" lon="7.5346386060"><ele></ele><time>2013-8-16T16:11:39Z</time></trkpt>
<trkpt lat="46.0859909747" lon="7.5347578805"><ele></ele><time>2013-8-16T16:11:42Z</time></trkpt>
<trkpt lat="46.0858381726" lon="7.5349035580"><ele></ele><time>2013-8-16T16:11:45Z</time></trkpt>
<trkpt lat="46.0858029686" lon="7.5351959188"><ele></ele><time>2013-8-16T16:11:48Z</time></trkpt>
<trkpt lat="46.0857870430" lon="7.5352153648"><ele></ele><time>2013-8-16T16:11:51Z</time></trkpt>
<trkpt lat="46.0857083369" lon="7.5352746248"><ele></ele><time>2013-8-16T16:11:54Z</time></trkpt>
<trkpt lat="46.0856557824" lon="7.5353430212"><ele></ele><time>2013-8-16T16:11:57Z</time></trkpt>
<trkpt lat="46.0856272839" lon="7.5353959110"><ele></ele><time>2013-8-16T16:12:0Z</time></trkpt>
<trkpt lat="46.0855968576" lon="7.5354612898"><ele></ele><time>2013-8-16T16:12:3Z</time></trkpt>
<trkpt lat="46.0854526050" lon="7.5357192848"><ele></ele><time>2013-8-16T16:12:6Z</time></trkpt>
<trkpt lat="46.0853119567" lon="7.5359498709"><ele></ele><time>2013-8-16T16:12:9Z</time></trkpt>
<trkpt lat="46.0851091985" lon="7.5361438282"><ele></ele><time>2013-8-16T16:12:12Z</time></trkpt>
<trkpt lat="46.0849367827" lon="7.5363581534"><ele></ele><time>2013-8-16T16:12:15Z</time></trkpt>
<trkpt lat="46.0848463420" lon="7.5366282184"><ele></ele><time>2013-8-16T16:12:18Z</time></trkpt>
<trkpt lat="46.0847545601" lon="7.5368801784"><ele></ele><time>2013-8-16T16:12:21Z</time></trkpt>
<trkpt lat="46.0847175959" lon="7.5371899735"><ele></ele><time>2013-8-16T16:12:24Z</time></trkpt>
<trkpt lat="46.0847312585" lon="7.5373922288"><ele></ele><time>2013-8-16T16:12:27Z</time></trkpt>
<trkpt lat="46.0847605951" lon="7.5373353995"><ele></ele><time>2013-8-16T16:12:30Z</time></trkpt>
<trkpt lat="46.0848363675" lon="7.5372764748"><ele></ele><time>2013-8-16T16:12:33Z</time></trkpt>
<trkpt lat="46.0850265529" lon="7.5371637382"><ele></ele><time>2013-8-16T16:12:36Z</time></trkpt>
<trkpt lat="46.0852123797" lon="7.5370256882"><ele></ele><time>2013-8-16T16:12:39Z</time></trkpt>
<trkpt lat="46.0853806045" lon="7.5368448067"><ele></ele><time>2013-8-16T16:12:42Z</time></trkpt>
<trkpt lat="46.0855736397" lon="7.5366425514"><ele></ele><time>2013-8-16T16:12:45Z</time></trkpt>
<trkpt lat="46.0857076664" lon="7.5365193374"><ele></ele><time>2013-8-16T16:12:48Z</time></trkpt>
<trkpt lat="46.0857090913" lon="7.5365163200"><ele></ele><time>2013-8-16T16:12:51Z</time></trkpt>
<trkpt lat="46.0857085045" lon="7.5365229417"><ele></ele><time>2013-8-16T16:12:54Z</time></trkpt>
<trkpt lat="46.0857794993" lon="7.5364706386"><ele></ele><time>2013-8-16T16:12:57Z</time></trkpt>
<trkpt lat="46.0859600455" lon="7.5363658648"><ele></ele><time>2013-8-16T16:13:0Z</time></trkpt>
<trkpt lat="46.0861821659" lon="7.5362791959"><ele></ele><time>2013-8-16T16:13:3Z</time></trkpt>
<trkpt lat="46.0863691662" lon="7.5361440796"><ele></ele><time>2013-8-16T16:13:6Z</time></trkpt>
<trkpt lat="46.0865010973" lon="7.5360577460"><ele></ele><time>2013-8-16T16:13:9Z</time></trkpt>
<trkpt lat="46.0865110718" lon="7.5359968934"><ele></ele><time>2013-8-16T16:13:12Z</time></trkpt>
<trkpt lat="46.0865166038" lon="7.5359839015"><ele></ele><time>2013-8-16T16:13:15Z</time></trkpt>
<trkpt lat="46.0865179449" lon="7.5359822251"><ele></ele><time>2013-8-16T16:13:18Z</time></trkpt>
<trkpt lat="46.0865288414" lon="7.5359665509"><ele></ele><time>2013-8-16T16:13:21Z</time></trkpt>
<trkpt lat="46.0865456052" lon="7.5359606836"><ele></ele><time>2013-8-16T16:13:24Z</time></trkpt>
<trkpt lat="46.0866634548" lon="7.5358905271"><ele></ele><time>2013-8-16T16:13:27Z</time></trkpt>
<trkpt lat="46.0868820548" lon="7.5357811432"><ele></ele><time>2013-8-16T16:13:30Z</time></trkpt>
<trkpt lat="46.0870702285" lon="7.5356930494"><ele></ele><time>2013-8-16T16:13:33Z</time></trkpt>
<trkpt lat="46.0872676224" lon="7.5355994236"><ele></ele><time>2013-8-16T16:13:36Z</time></trkpt>
<trkpt lat="46.0874547902" lon="7.5355118327"><ele></ele><time>2013-8-16T16:13:39Z</time></trkpt>
<trkpt lat="46.0876582190" lon="7.5354176201"><ele></ele><time>2013-8-16T16:13:42Z</time></trkpt>
<trkpt lat="46.0876890644" lon="7.5354189612"><ele></ele><time>2013-8-16T16:13:45Z</time></trkpt>
<trkpt lat="46.0877018888" lon="7.5355040375"><ele></ele><time>2013-8-16T16:13:48Z</time></trkpt>
<trkpt lat="46.0874925088" lon="7.5356343761"><ele></ele><time>2013-8-16T16:13:51Z</time></trkpt>
<trkpt lat="46.0873423051" lon="7.5358249806"><ele></ele><time>2013-8-16T16:13:54Z</time></trkpt>
<trkpt lat="46.0871800315" lon="7.5360398926"><ele></ele><time>2013-8-16T16:13:57Z</time></trkpt>
<trkpt lat="46.0870087054" lon="7.5362629350"><ele></ele><time>2013-8-16T16:14:0Z</time></trkpt>
<trkpt lat="46.0869865771" lon="7.5365569722"><ele></ele><time>2013-8-16T16:14:3Z</time></trkpt>
<trkpt lat="46.0870567337" lon="7.5369245186"><ele></ele><time>2013-8-16T16:14:6Z</time></trkpt>
<trkpt lat="46.0870770179" lon="7.5372441206"><ele></ele><time>2013-8-16T16:14:9Z</time></trkpt>
<trkpt lat="46.0869894270" lon="7.5375632197"><ele></ele><time>2013-8-16T16:14:12Z</time></trkpt>
<trkpt lat="46.0868812166" lon="7.5379124098"><ele></ele><time>2013-8-16T16:14:15Z</time></trkpt>
<trkpt lat="46.0868688114" lon="7.5380933750"><ele></ele><time>2013-8-16T16:14:18Z</time></trkpt>
<trkpt lat="46.0869679693" lon="7.5380518846"><ele></ele><time>2013-8-16T16:14:21Z</time></trkpt>
<trkpt lat="46.0871683806" lon="7.5378096476"><ele></ele><time>2013-8-16T16:14:24Z</time></trkpt>
<trkpt lat="46.0873027425" lon="7.5376656465"><ele></ele><time>2013-8-16T16:14:27Z</time></trkpt>
<trkpt lat="46.0873048380" lon="7.5375661533"><ele></ele><time>2013-8-16T16:14:30Z</time></trkpt>
<trkpt lat="46.0873298161" lon="7.5371594634"><ele></ele><time>2013-8-16T16:14:33Z</time></trkpt>
<trkpt lat="46.0874662735" lon="7.5369102694"><ele></ele><time>2013-8-16T16:14:36Z</time></trkpt>
<trkpt lat="46.0876730550" lon="7.5368369278"><ele></ele><time>2013-8-16T16:14:39Z</time></trkpt>
<trkpt lat="46.0877474863" lon="7.5368106924"><ele></ele><time>2013-8-16T16:14:42Z</time></trkpt>
<trkpt lat="46.0877535213" lon="7.5368938409"><ele></ele><time>2013-8-16T16:14:45Z</time></trkpt>
<trkpt lat="46.0876067542" lon="7.5371070765"><ele></ele><time>2013-8-16T16:14:48Z</time></trkpt>
<trkpt lat="46.0875805188" lon="7.5375013612"><ele></ele><time>2013-8-16T16:14:51Z</time></trkpt>
<trkpt lat="46.0876552016" lon="7.5378746074"><ele></ele><time>2013-8-16T16:14:54Z</time></trkpt>
<trkpt lat="46.0876447242" lon="7.5381808821"><ele></ele><time>2013-8-16T16:14:57Z</time></trkpt>
<trkpt lat="46.0875774175" lon="7.5385526195"><ele></ele><time>2013-8-16T16:15:0Z</time></trkpt>
<trkpt lat="46.0875513498" lon="7.5388759933"><ele></ele><time>2013-8-16T16:15:3Z</time></trkpt>
<trkpt lat="46.0875567142" lon="7.5392073300"><ele></ele><time>2013-8-16T16:15:6Z</time></trkpt>
<trkpt lat="46.0875174031" lon="7.5393215753"><ele></ele><time>2013-8-16T16:15:9Z</time></trkpt>
<trkpt lat="46.0875266232" lon="7.5393644068"><ele></ele><time>2013-8-16T16:15:12Z</time></trkpt>
<trkpt lat="46.0875194147" lon="7.5393984374"><ele></ele><time>2013-8-16T16:15:15Z</time></trkpt>
<trkpt lat="46.0875160620" lon="7.5396397524"><ele></ele><time>2013-8-16T16:15:18Z</time></trkpt>
<trkpt lat="46.0874308180" lon="7.5398674048"><ele></ele><time>2013-8-16T16:15:21Z</time></trkpt>
<trkpt lat="46.0874039959" lon="7.5399130024"><ele></ele><time>2013-8-16T16:15:24Z</time></trkpt>
<trkpt lat="46.0873673670" lon="7.5399944745"><ele></ele><time>2013-8-16T16:15:27Z</time></trkpt>
<trkpt lat="46.0872462485" lon="7.5402713288"><ele></ele><time>2013-8-16T16:15:30Z</time></trkpt>
<trkpt lat="46.0871354397" lon="7.5405061059"><ele></ele><time>2013-8-16T16:15:33Z</time></trkpt>
<trkpt lat="46.0869850684" lon="7.5408120453"><ele></ele><time>2013-8-16T16:15:36Z</time></trkpt>
<trkpt lat="46.0868470185" lon="7.5410725549"><ele></ele><time>2013-8-16T16:15:39Z</time></trkpt>
<trkpt lat="46.0866917856" lon="7.5413404405"><ele></ele><time>2013-8-16T16:15:42Z</time></trkpt>
<trkpt lat="46.0865530651" lon="7.5416866131"><ele></ele><time>2013-8-16T16:15:45Z</time></trkpt>
<trkpt lat="46.0865118261" lon="7.5420291815"><ele></ele><time>2013-8-16T16:15:48Z</time></trkpt>
<trkpt lat="46.0864660610" lon="7.5423118193"><ele></ele><time>2013-8-16T16:15:51Z</time></trkpt>
<trkpt lat="46.0864447709" lon="7.5424194429"><ele></ele><time>2013-8-16T16:15:54Z</time></trkpt>
<trkpt lat="46.0864360537" lon="7.5424913596"><ele></ele><time>2013-8-16T16:15:57Z</time></trkpt>
<trkpt lat="46.0864172783" lon="7.5427282322"><ele></ele><time>2013-8-16T16:16:0Z</time></trkpt>
<trkpt lat="46.0864008497" lon="7.5430806074"><ele></ele><time>2013-8-16T16:16:3Z</time></trkpt>
<trkpt lat="46.0864249058" lon="7.5433732197"><ele></ele><time>2013-8-16T16:16:6Z</time></trkpt>
<trkpt lat="46.0864637978" lon="7.5436591264"><ele></ele><time>2013-8-16T16:16:9Z</time></trkpt>
<trkpt lat="46.0864332877" lon="7.5439454522"><ele></ele><time>2013-8-16T16:16:12Z</time></trkpt>
<trkpt lat="46.0863814037" lon="7.5441955682"><ele></ele><time>2013-8-16T16:16:15Z</time></trkpt>
<trkpt lat="46.0863682441" lon="7.5442785490"><ele></ele><time>2013-8-16T16:16:18Z</time></trkpt>
<trkpt lat="46.0863420926" lon="7.5444598496"><ele></ele><time>2013-8-16T16:16:21Z</time></trkpt>
<trkpt lat="46.0863274243" lon="7.5447055232"><ele></ele><time>2013-8-16T16:16:24Z</time></trkpt>
<trkpt lat="46.0863205511" lon="7.5447841454"><ele></ele><time>2013-8-16T16:16:27Z</time></trkpt>
<trkpt lat="46.0862877779" lon="7.5449388754"><ele></ele><time>2013-8-16T16:16:30Z</time></trkpt>
<trkpt lat="46.0862819944" lon="7.5450233649"><ele></ele><time>2013-8-16T16:16:33Z</time></trkpt>
<trkpt lat="46.0862441920" lon="7.5452599023"><ele></ele><time>2013-8-16T16:16:36Z</time></trkpt>
<trkpt lat="46.0861992650" lon="7.5455525145"><ele></ele><time>2013-8-16T16:16:39Z</time></trkpt>
<trkpt lat="46.0861768015" lon="7.5458515808"><ele></ele><time>2013-8-16T16:16:42Z</time></trkpt>
<trkpt lat="46.0861448664" lon="7.5461196341"><ele></ele><time>2013-8-16T16:16:45Z</time></trkpt>
<trkpt lat="46.0861484706" lon="7.5464052893"><ele></ele><time>2013-8-16T16:16:48Z</time></trkpt>
<trkpt lat="46.0861401726" lon="7.5465580076"><ele></ele><time>2013-8-16T16:16:51Z</time></trkpt>
<trkpt lat="46.0860849358" lon="7.5468243007"><ele></ele><time>2013-8-16T16:16:54Z</time></trkpt>
<trkpt lat="46.0860556830" lon="7.5471195951"><ele></ele><time>2013-8-16T16:16:57Z</time></trkpt>
<trkpt lat="46.0860261787" lon="7.5473796017"><ele></ele><time>2013-8-16T16:17:0Z</time></trkpt>
<trkpt lat="46.0860202275" lon="7.5473961141"><ele></ele><time>2013-8-16T16:17:3Z</time></trkpt>
<trkpt lat="46.0859709419" lon="7.5477053225"><ele></ele><time>2013-8-16T16:17:6Z</time></trkpt>
<trkpt lat="46.0859641526" lon="7.5477411132"><ele></ele><time>2013-8-16T16:17:9Z</time></trkpt>
<trkpt lat="46.0859586205" lon="7.5478252675"><ele></ele><time>2013-8-16T16:17:12Z</time></trkpt>
<trkpt lat="46.0858776513" lon="7.5480951648"><ele></ele><time>2013-8-16T16:17:15Z</time></trkpt>
<trkpt lat="46.0857837740" lon="7.5483396649"><ele></ele><time>2013-8-16T16:17:18Z</time></trkpt>
<trkpt lat="46.0856276192" lon="7.5485366397"><ele></ele><time>2013-8-16T16:17:21Z</time></trkpt>
<trkpt lat="46.0854718834" lon="7.5486440957"><ele></ele><time>2013-8-16T16:17:24Z</time></trkpt>
<trkpt lat="46.0853393655" lon="7.5488477759"><ele></ele><time>2013-8-16T16:17:27Z</time></trkpt>
<trkpt lat="46.0852524452" lon="7.5489459280"><ele></ele><time>2013-8-16T16:17:30Z</time></trkpt>
<trkpt lat="46.0851159878" lon="7.5491105486"><ele></ele><time>2013-8-16T16:17:33Z</time></trkpt>
<trkpt lat="46.0850630980" lon="7.5492004026"><ele></ele><time>2013-8-16T16:17:36Z</time></trkpt>
<trkpt lat="46.0849805363" lon="7.5494276360"><ele></ele><time>2013-8-16T16:17:39Z</time></trkpt>
<trkpt lat="46.0849310830" lon="7.5495977048"><ele></ele><time>2013-8-16T16:17:42Z</time></trkpt>
<trkpt lat="46.0848223697" lon="7.5498692784"><ele></ele><time>2013-8-16T16:17:45Z</time></trkpt>
<trkpt lat="46.0846994072" lon="7.5501079112"><ele></ele><time>2013-8-16T16:17:48Z</time></trkpt>
<trkpt lat="46.0845063720" lon="7.5503085740"><ele></ele><time>2013-8-16T16:17:51Z</time></trkpt>
<trkpt lat="46.0843415000" lon="7.5504529104"><ele></ele><time>2013-8-16T16:17:54Z</time></trkpt>
<trkpt lat="46.0842895322" lon="7.5505021960"><ele></ele><time>2013-8-16T16:17:57Z</time></trkpt>
<trkpt lat="46.0842408333" lon="7.5505351368"><ele></ele><time>2013-8-16T16:18:0Z</time></trkpt>
<trkpt lat="46.0841866024" lon="7.5505975820"><ele></ele><time>2013-8-16T16:18:3Z</time></trkpt>
<trkpt lat="46.0841254983" lon="7.5506835803"><ele></ele><time>2013-8-16T16:18:6Z</time></trkpt>
<trkpt lat="46.0840659030" lon="7.5508759450"><ele></ele><time>2013-8-16T16:18:9Z</time></trkpt>
<trkpt lat="46.0839034617" lon="7.5510878395"><ele></ele><time>2013-8-16T16:18:12Z</time></trkpt>
<trkpt lat="46.0838328023" lon="7.5511150807"><ele></ele><time>2013-8-16T16:18:15Z</time></trkpt>
<trkpt lat="46.0837722849" lon="7.5511493627"><ele></ele><time>2013-8-16T16:18:18Z</time></trkpt>
<trkpt lat="46.0835575406" lon="7.5513541326"><ele></ele><time>2013-8-16T16:18:21Z</time></trkpt>
<trkpt lat="46.0834671836" lon="7.5515280571"><ele></ele><time>2013-8-16T16:18:24Z</time></trkpt>
<trkpt lat="46.0834137071" lon="7.5517482497"><ele></ele><time>2013-8-16T16:18:27Z</time></trkpt>
<trkpt lat="46.0834045708" lon="7.5517732278"><ele></ele><time>2013-8-16T16:18:30Z</time></trkpt>
<trkpt lat="46.0833614040" lon="7.5520468131"><ele></ele><time>2013-8-16T16:18:33Z</time></trkpt>
<trkpt lat="46.0832936782" lon="7.5522009563"><ele></ele><time>2013-8-16T16:18:36Z</time></trkpt>
<trkpt lat="46.0832561273" lon="7.5522825960"><ele></ele><time>2013-8-16T16:18:39Z</time></trkpt>
<trkpt lat="46.0832623299" lon="7.5523218233"><ele></ele><time>2013-8-16T16:18:42Z</time></trkpt>
<trkpt lat="46.0832537804" lon="7.5523277745"><ele></ele><time>2013-8-16T16:18:45Z</time></trkpt>
<trkpt lat="46.0832588933" lon="7.5523249246"><ele></ele><time>2013-8-16T16:18:48Z</time></trkpt>
<trkpt lat="46.0832600668" lon="7.5523379166"><ele></ele><time>2013-8-16T16:18:51Z</time></trkpt>
<trkpt lat="46.0832635872" lon="7.5523455441"><ele></ele><time>2013-8-16T16:18:54Z</time></trkpt>
<trkpt lat="46.0832189117" lon="7.5524063967"><ele></ele><time>2013-8-16T16:18:57Z</time></trkpt>
<trkpt lat="46.0832018126" lon="7.5524373259"><ele></ele><time>2013-8-16T16:19:0Z</time></trkpt>
<trkpt lat="46.0831448995" lon="7.5525004417"><ele></ele><time>2013-8-16T16:19:3Z</time></trkpt>
<trkpt lat="46.0831060912" lon="7.5525403395"><ele></ele><time>2013-8-16T16:19:6Z</time></trkpt>
<trkpt lat="46.0830573086" lon="7.5526368152"><ele></ele><time>2013-8-16T16:19:9Z</time></trkpt>
<trkpt lat="46.0830241162" lon="7.5527095702"><ele></ele><time>2013-8-16T16:19:12Z</time></trkpt>
<trkpt lat="46.0830140579" lon="7.5526903756"><ele></ele><time>2013-8-16T16:19:15Z</time></trkpt>
<trkpt lat="46.0830239486" lon="7.5526955724"><ele></ele><time>2013-8-16T16:19:18Z</time></trkpt>
<trkpt lat="46.0830398742" lon="7.5527692493"><ele></ele><time>2013-8-16T16:19:21Z</time></trkpt>
<trkpt lat="46.0830836277" lon="7.5527954847"><ele></ele><time>2013-8-16T16:19:24Z</time></trkpt>
<trkpt lat="46.0830911715" lon="7.5528600253"><ele></ele><time>2013-8-16T16:19:27Z</time></trkpt>
<trkpt lat="46.0831610765" lon="7.5529072154"><ele></ele><time>2013-8-16T16:19:30Z</time></trkpt>
<trkpt lat="46.0831581429" lon="7.5529095624"><ele></ele><time>2013-8-16T16:19:33Z</time></trkpt>
<trkpt lat="46.0831283033" lon="7.5528917089"><ele></ele><time>2013-8-16T16:19:36Z</time></trkpt>
<trkpt lat="46.0831195023" lon="7.5528995041"><ele></ele><time>2013-8-16T16:19:39Z</time></trkpt>
<trkpt lat="46.0831224360" lon="7.5529114064"><ele></ele><time>2013-8-16T16:19:42Z</time></trkpt>
<trkpt lat="46.0831309017" lon="7.5529110711"><ele></ele><time>2013-8-16T16:19:45Z</time></trkpt>
<trkpt lat="46.0831344221" lon="7.5528972410"><ele></ele><time>2013-8-16T16:19:48Z</time></trkpt>
<trkpt lat="46.0831378587" lon="7.5528871827"><ele></ele><time>2013-8-16T16:19:51Z</time></trkpt>
<trkpt lat="46.0831401218" lon="7.5528828241"><ele></ele><time>2013-8-16T16:19:54Z</time></trkpt>
<trkpt lat="46.0831427202" lon="7.5528804772"><ele></ele><time>2013-8-16T16:19:57Z</time></trkpt>
<trkpt lat="46.0831475817" lon="7.5528901163"><ele></ele><time>2013-8-16T16:20:0Z</time></trkpt>
<trkpt lat="46.0831487551" lon="7.5528973248"><ele></ele><time>2013-8-16T16:20:3Z</time></trkpt>
<trkpt lat="46.0831495933" lon="7.5529047009"><ele></ele><time>2013-8-16T16:20:6Z</time></trkpt>
<trkpt lat="46.0831528623" lon="7.5529087242"><ele></ele><time>2013-8-16T16:20:9Z</time></trkpt>
<trkpt lat="46.0831516888" lon="7.5529035274"><ele></ele><time>2013-8-16T16:20:12Z</time></trkpt>
<trkpt lat="46.0831524432" lon="7.5528972410"><ele></ele><time>2013-8-16T16:20:15Z</time></trkpt>
<trkpt lat="46.0831522755" lon="7.5529062934"><ele></ele><time>2013-8-16T16:20:18Z</time></trkpt>
<trkpt lat="46.0831557121" lon="7.5529065449"><ele></ele><time>2013-8-16T16:20:21Z</time></trkpt>
<trkpt lat="46.0831495095" lon="7.5529108196"><ele></ele><time>2013-8-16T16:20:24Z</time></trkpt>
<trkpt lat="46.0831516888" lon="7.5529078022"><ele></ele><time>2013-8-16T16:20:27Z</time></trkpt>
<trkpt lat="46.0831457376" lon="7.5529058743"><ele></ele><time>2013-8-16T16:20:30Z</time></trkpt>
<trkpt lat="46.0831479169" lon="7.5529074669"><ele></ele><time>2013-8-16T16:20:33Z</time></trkpt>
<trkpt lat="46.0831530299" lon="7.5529058743"><ele></ele><time>2013-8-16T16:20:36Z</time></trkpt>
<trkpt lat="46.0831541196" lon="7.5529035274"><ele></ele><time>2013-8-16T16:20:39Z</time></trkpt>
<trkpt lat="46.0831498448" lon="7.5529052876"><ele></ele><time>2013-8-16T16:20:42Z</time></trkpt>
<trkpt lat="46.0831411276" lon="7.5529145077"><ele></ele><time>2013-8-16T16:20:45Z</time></trkpt>
<trkpt lat="46.0831367690" lon="7.5529114902"><ele></ele><time>2013-8-16T16:20:48Z</time></trkpt>
<trkpt lat="46.0831408761" lon="7.5529199559"><ele></ele><time>2013-8-16T16:20:51Z</time></trkpt>
<trkpt lat="46.0831362661" lon="7.5529140886"><ele></ele><time>2013-8-16T16:20:54Z</time></trkpt>
<trkpt lat="46.0831314046" lon="7.5529144239"><ele></ele><time>2013-8-16T16:20:57Z</time></trkpt>
<trkpt lat="46.0831277166" lon="7.5529117417"><ele></ele><time>2013-8-16T16:21:0Z</time></trkpt>
<trkpt lat="46.0831218492" lon="7.5529047009"><ele></ele><time>2013-8-16T16:21:3Z</time></trkpt>
<trkpt lat="46.0831253696" lon="7.5529021025"><ele></ele><time>2013-8-16T16:21:6Z</time></trkpt>
<trkpt lat="46.0831294768" lon="7.5529048685"><ele></ele><time>2013-8-16T16:21:9Z</time></trkpt>
<trkpt lat="46.0831262078" lon="7.5529078022"><ele></ele><time>2013-8-16T16:21:12Z</time></trkpt>
<trkpt lat="46.0831267945" lon="7.5529032759"><ele></ele><time>2013-8-16T16:21:15Z</time></trkpt>
<trkpt lat="46.0831226036" lon="7.5529062096"><ele></ele><time>2013-8-16T16:21:18Z</time></trkpt>
<trkpt lat="46.0831215978" lon="7.5529074669"><ele></ele><time>2013-8-16T16:21:21Z</time></trkpt>
<trkpt lat="46.0831197537" lon="7.5529046170"><ele></ele><time>2013-8-16T16:21:24Z</time></trkpt>
<trkpt lat="46.0831159819" lon="7.5528997555"><ele></ele><time>2013-8-16T16:21:27Z</time></trkpt>
<trkpt lat="46.0831173230" lon="7.5529010966"><ele></ele><time>2013-8-16T16:21:30Z</time></trkpt>
<trkpt lat="46.0831257887" lon="7.5529029407"><ele></ele><time>2013-8-16T16:21:33Z</time></trkpt>
<trkpt lat="46.0831353441" lon="7.5529069640"><ele></ele><time>2013-8-16T16:21:36Z</time></trkpt>
<trkpt lat="46.0831379425" lon="7.5529056229"><ele></ele><time>2013-8-16T16:21:39Z</time></trkpt>
<trkpt lat="46.0831441451" lon="7.5528967381"><ele></ele><time>2013-8-16T16:21:42Z</time></trkpt>
<trkpt lat="46.0831327457" lon="7.5528781302"><ele></ele><time>2013-8-16T16:21:45Z</time></trkpt>
<trkpt lat="46.0831252858" lon="7.5528278388"><ele></ele><time>2013-8-16T16:21:48Z</time></trkpt>
<trkpt lat="46.0831362661" lon="7.5528030284"><ele></ele><time>2013-8-16T16:21:51Z</time></trkpt>
<trkpt lat="46.0831652675" lon="7.5527774636"><ele></ele><time>2013-8-16T16:21:54Z</time></trkpt>
<trkpt lat="46.0831949394" lon="7.5527136773"><ele></ele><time>2013-8-16T16:21:57Z</time></trkpt>
<trkpt lat="46.0832199175" lon="7.5526704267"><ele></ele><time>2013-8-16T16:22:0Z</time></trkpt>
<trkpt lat="46.0833162256" lon="7.5525493082"><ele></ele><time>2013-8-16T16:22:3Z</time></trkpt>
<trkpt lat="46.0833378509" lon="7.5523950811"><ele></ele><time>2013-8-16T16:22:6Z</time></trkpt>
<trkpt lat="46.0833173990" lon="7.5522870384"><ele></ele><time>2013-8-16T16:22:9Z</time></trkpt>
<trkpt lat="46.0833137110" lon="7.5522748008"><ele></ele><time>2013-8-16T16:22:12Z</time></trkpt>
<trkpt lat="46.0833081789" lon="7.5522645749"><ele></ele><time>2013-8-16T16:22:15Z</time></trkpt>
<trkpt lat="46.0832858831" lon="7.5523126032"><ele></ele><time>2013-8-16T16:22:18Z</time></trkpt>
<trkpt lat="46.0832529422" lon="7.5523466337"><ele></ele><time>2013-8-16T16:22:21Z</time></trkpt>
<trkpt lat="46.0832561273" lon="7.5523510762"><ele></ele><time>2013-8-16T16:22:24Z</time></trkpt>
<trkpt lat="46.0832597315" lon="7.5523602962"><ele></ele><time>2013-8-16T16:22:27Z</time></trkpt>
<trkpt lat="46.0832641739" lon="7.5523660798"><ele></ele><time>2013-8-16T16:22:30Z</time></trkpt>
<trkpt lat="46.0832775012" lon="7.5523426943"><ele></ele><time>2013-8-16T16:22:33Z</time></trkpt>
<trkpt lat="46.0832837876" lon="7.5523212366"><ele></ele><time>2013-8-16T16:22:36Z</time></trkpt>
<trkpt lat="46.0833778325" lon="7.5521108508"><ele></ele><time>2013-8-16T16:22:39Z</time></trkpt>
<trkpt lat="46.0833936743" lon="7.5519983657"><ele></ele><time>2013-8-16T16:22:42Z</time></trkpt>
<trkpt lat="46.0834858753" lon="7.5515963696"><ele></ele><time>2013-8-16T16:22:45Z</time></trkpt>
<trkpt lat="46.0837056488" lon="7.5512351096"><ele></ele><time>2013-8-16T16:22:48Z</time></trkpt>
<trkpt lat="46.0839410964" lon="7.5510742608"><ele></ele><time>2013-8-16T16:22:51Z</time></trkpt>
<trkpt lat="46.0841150209" lon="7.5508269947"><ele></ele><time>2013-8-16T16:22:54Z</time></trkpt>
<trkpt lat="46.0842583515" lon="7.5505287666"><ele></ele><time>2013-8-16T16:22:57Z</time></trkpt>
<trkpt lat="46.0846859124" lon="7.5501402654"><ele></ele><time>2013-8-16T16:23:0Z</time></trkpt>
<trkpt lat="46.0848244652" lon="7.5499148760"><ele></ele><time>2013-8-16T16:23:3Z</time></trkpt>
<trkpt lat="46.0850352701" lon="7.5492823776"><ele></ele><time>2013-8-16T16:23:6Z</time></trkpt>
<trkpt lat="46.0851574782" lon="7.5490735844"><ele></ele><time>2013-8-16T16:23:9Z</time></trkpt>
<trkpt lat="46.0855052434" lon="7.5486614462"><ele></ele><time>2013-8-16T16:23:12Z</time></trkpt>
<trkpt lat="46.0858354066" lon="7.5482801534"><ele></ele><time>2013-8-16T16:23:15Z</time></trkpt>
<trkpt lat="46.0859439522" lon="7.5480024610"><ele></ele><time>2013-8-16T16:23:18Z</time></trkpt>
<trkpt lat="46.0860067327" lon="7.5477174763"><ele></ele><time>2013-8-16T16:23:21Z</time></trkpt>
<trkpt lat="46.0861115064" lon="7.5467865821"><ele></ele><time>2013-8-16T16:23:24Z</time></trkpt>
<trkpt lat="46.0861523263" lon="7.5465880986"><ele></ele><time>2013-8-16T16:23:27Z</time></trkpt>
<trkpt lat="46.0861699283" lon="7.5462599471"><ele></ele><time>2013-8-16T16:23:30Z</time></trkpt>
<trkpt lat="46.0863080621" lon="7.5449957885"><ele></ele><time>2013-8-16T16:23:33Z</time></trkpt>
<trkpt lat="46.0863776319" lon="7.5442720111"><ele></ele><time>2013-8-16T16:23:36Z</time></trkpt>
<trkpt lat="46.0864554159" lon="7.5438654050"><ele></ele><time>2013-8-16T16:23:39Z</time></trkpt>
<trkpt lat="46.0863959044" lon="7.5429540407"><ele></ele><time>2013-8-16T16:23:42Z</time></trkpt>
<trkpt lat="46.0864800587" lon="7.5422416627"><ele></ele><time>2013-8-16T16:23:45Z</time></trkpt>
<trkpt lat="46.0865291767" lon="7.5417339709"><ele></ele><time>2013-8-16T16:23:48Z</time></trkpt>
<trkpt lat="46.0866150074" lon="7.5414587930"><ele></ele><time>2013-8-16T16:23:51Z</time></trkpt>
<trkpt lat="46.0870791133" lon="7.5405667908"><ele></ele><time>2013-8-16T16:23:54Z</time></trkpt>
<trkpt lat="46.0875190794" lon="7.5396954920"><ele></ele><time>2013-8-16T16:23:57Z</time></trkpt>
<trkpt lat="46.0875293892" lon="7.5394255947"><ele></ele><time>2013-8-16T16:24:0Z</time></trkpt>
<trkpt lat="46.0875030700" lon="7.5393676758"><ele></ele><time>2013-8-16T16:24:3Z</time></trkpt>
<trkpt lat="46.0875270423" lon="7.5393384229"><ele></ele><time>2013-8-16T16:24:6Z</time></trkpt>
<trkpt lat="46.0875356756" lon="7.5393406022"><ele></ele><time>2013-8-16T16:24:9Z</time></trkpt>
<trkpt lat="46.0875373520" lon="7.5393385068"><ele></ele><time>2013-8-16T16:24:12Z</time></trkpt>
<trkpt lat="46.0875678621" lon="7.5391355809"><ele></ele><time>2013-8-16T16:24:15Z</time></trkpt>
<trkpt lat="46.0875498410" lon="7.5389452279"><ele></ele><time>2013-8-16T16:24:18Z</time></trkpt>
<trkpt lat="46.0875593126" lon="7.5387168210"><ele></ele><time>2013-8-16T16:24:21Z</time></trkpt>
<trkpt lat="46.0876711272" lon="7.5381327700"><ele></ele><time>2013-8-16T16:24:24Z</time></trkpt>
<trkpt lat="46.0876114480" lon="7.5376066379"><ele></ele><time>2013-8-16T16:24:27Z</time></trkpt>
<trkpt lat="46.0875955224" lon="7.5372291170"><ele></ele><time>2013-8-16T16:24:30Z</time></trkpt>
<trkpt lat="46.0876256973" lon="7.5370831881"><ele></ele><time>2013-8-16T16:24:33Z</time></trkpt>
<trkpt lat="46.0877966043" lon="7.5368603133"><ele></ele><time>2013-8-16T16:24:36Z</time></trkpt>
<trkpt lat="46.0877239332" lon="7.5367861334"><ele></ele><time>2013-8-16T16:24:39Z</time></trkpt>
<trkpt lat="46.0874612443" lon="7.5368935894"><ele></ele><time>2013-8-16T16:24:42Z</time></trkpt>
<trkpt lat="46.0873165727" lon="7.5371652469"><ele></ele><time>2013-8-16T16:24:45Z</time></trkpt>
<trkpt lat="46.0872965399" lon="7.5375938136"><ele></ele><time>2013-8-16T16:24:48Z</time></trkpt>
<trkpt lat="46.0871651955" lon="7.5378110725"><ele></ele><time>2013-8-16T16:24:51Z</time></trkpt>
<trkpt lat="46.0870236252" lon="7.5379414111"><ele></ele><time>2013-8-16T16:24:54Z</time></trkpt>
<trkpt lat="46.0868468508" lon="7.5380523037"><ele></ele><time>2013-8-16T16:24:57Z</time></trkpt>
<trkpt lat="46.0868655425" lon="7.5379422493"><ele></ele><time>2013-8-16T16:25:0Z</time></trkpt>
<trkpt lat="46.0870411433" lon="7.5374158658"><ele></ele><time>2013-8-16T16:25:3Z</time></trkpt>
<trkpt lat="46.0870636906" lon="7.5370682683"><ele></ele><time>2013-8-16T16:25:6Z</time></trkpt>
<trkpt lat="46.0869744234" lon="7.5365523621"><ele></ele><time>2013-8-16T16:25:9Z</time></trkpt>
<trkpt lat="46.0870372038" lon="7.5362285692"><ele></ele><time>2013-8-16T16:25:12Z</time></trkpt>
<trkpt lat="46.0875266232" lon="7.5356122479"><ele></ele><time>2013-8-16T16:25:15Z</time></trkpt>
<trkpt lat="46.0877270345" lon="7.5354081485"><ele></ele><time>2013-8-16T16:25:18Z</time></trkpt>
<trkpt lat="46.0876250267" lon="7.5354039576"><ele></ele><time>2013-8-16T16:25:21Z</time></trkpt>
<trkpt lat="46.0870412271" lon="7.5356711727"><ele></ele><time>2013-8-16T16:25:24Z</time></trkpt>
<trkpt lat="46.0865279194" lon="7.5359560736"><ele></ele><time>2013-8-16T16:25:27Z</time></trkpt>
<trkpt lat="46.0865064617" lon="7.5359892659"><ele></ele><time>2013-8-16T16:25:30Z</time></trkpt>
<trkpt lat="46.0864962358" lon="7.5360487774"><ele></ele><time>2013-8-16T16:25:33Z</time></trkpt>
<trkpt lat="46.0863451101" lon="7.5361416489"><ele></ele><time>2013-8-16T16:25:36Z</time></trkpt>
<trkpt lat="46.0861004423" lon="7.5363083649"><ele></ele><time>2013-8-16T16:25:39Z</time></trkpt>
<trkpt lat="46.0855243541" lon="7.5366762467"><ele></ele><time>2013-8-16T16:25:42Z</time></trkpt>
<trkpt lat="46.0853005573" lon="7.5368985347"><ele></ele><time>2013-8-16T16:25:45Z</time></trkpt>
<trkpt lat="46.0850258823" lon="7.5371732097"><ele></ele><time>2013-8-16T16:25:48Z</time></trkpt>
<trkpt lat="46.0847945418" lon="7.5372907240"><ele></ele><time>2013-8-16T16:25:51Z</time></trkpt>
<trkpt lat="46.0846230481" lon="7.5373241678"><ele></ele><time>2013-8-16T16:25:54Z</time></trkpt>
<trkpt lat="46.0846437514" lon="7.5372664165"><ele></ele><time>2013-8-16T16:25:57Z</time></trkpt>
<trkpt lat="46.0846947972" lon="7.5371732097"><ele></ele><time>2013-8-16T16:26:0Z</time></trkpt>
<trkpt lat="46.0847921111" lon="7.5367277116"><ele></ele><time>2013-8-16T16:26:3Z</time></trkpt>
<trkpt lat="46.0849721543" lon="7.5363217760"><ele></ele><time>2013-8-16T16:26:6Z</time></trkpt>
<trkpt lat="46.0850465856" lon="7.5362252165"><ele></ele><time>2013-8-16T16:26:9Z</time></trkpt>
<trkpt lat="46.0853330791" lon="7.5359530561"><ele></ele><time>2013-8-16T16:26:12Z</time></trkpt>
<trkpt lat="46.0857045650" lon="7.5353103317"><ele></ele><time>2013-8-16T16:26:15Z</time></trkpt>
<trkpt lat="46.0857518390" lon="7.5352481380"><ele></ele><time>2013-8-16T16:26:18Z</time></trkpt>
<trkpt lat="46.0857603885" lon="7.5352417678"><ele></ele><time>2013-8-16T16:26:21Z</time></trkpt>
<trkpt lat="46.0857652500" lon="7.5352409296"><ele></ele><time>2013-8-16T16:26:24Z</time></trkpt>
<trkpt lat="46.0857710335" lon="7.5352272671"><ele></ele><time>2013-8-16T16:26:27Z</time></trkpt>
<trkpt lat="46.0858037230" lon="7.5350736268"><ele></ele><time>2013-8-16T16:26:30Z</time></trkpt>
<trkpt lat="46.0858188942" lon="7.5349695235"><ele></ele><time>2013-8-16T16:26:33Z</time></trkpt>
<trkpt lat="46.0860381648" lon="7.5347370096"><ele></ele><time>2013-8-16T16:26:36Z</time></trkpt>
<trkpt lat="46.0862879455" lon="7.5344730634"><ele></ele><time>2013-8-16T16:26:39Z</time></trkpt>
<trkpt lat="46.0861649830" lon="7.5342644379"><ele></ele><time>2013-8-16T16:26:42Z</time></trkpt>
<trkpt lat="46.0859139450" lon="7.5343839638"><ele></ele><time>2013-8-16T16:26:45Z</time></trkpt>
<trkpt lat="46.0856277868" lon="7.5344892405"><ele></ele><time>2013-8-16T16:26:48Z</time></trkpt>
<trkpt lat="46.0854141321" lon="7.5347884744"><ele></ele><time>2013-8-16T16:26:51Z</time></trkpt>
<trkpt lat="46.0852632578" lon="7.5348750595"><ele></ele><time>2013-8-16T16:26:54Z</time></trkpt>
<trkpt lat="46.0850449931" lon="7.5351271033"><ele></ele><time>2013-8-16T16:26:57Z</time></trkpt>
<trkpt lat="46.0849585757" lon="7.5350219104"><ele></ele><time>2013-8-16T16:27:0Z</time></trkpt>
<trkpt lat="46.0852136370" lon="7.5345790945"><ele></ele><time>2013-8-16T16:27:3Z</time></trkpt>
<trkpt lat="46.0853329115" lon="7.5343289785"><ele></ele><time>2013-8-16T16:27:6Z</time></trkpt>
<trkpt lat="46.0853436403" lon="7.5341371167"><ele></ele><time>2013-8-16T16:27:9Z</time></trkpt>
<trkpt lat="46.0853499267" lon="7.5341390446"><ele></ele><time>2013-8-16T16:27:12Z</time></trkpt>
<trkpt lat="46.0853819456" lon="7.5341325067"><ele></ele><time>2013-8-16T16:27:15Z</time></trkpt>
<trkpt lat="46.0853816103" lon="7.5341308303"><ele></ele><time>2013-8-16T16:27:18Z</time></trkpt>
<trkpt lat="46.0855455603" lon="7.5338247232"><ele></ele><time>2013-8-16T16:27:21Z</time></trkpt>
<trkpt lat="46.0856108554" lon="7.5337362103"><ele></ele><time>2013-8-16T16:27:24Z</time></trkpt>
<trkpt lat="46.0856768209" lon="7.5336355437"><ele></ele><time>2013-8-16T16:27:27Z</time></trkpt>
<trkpt lat="46.0858619772" lon="7.5334430952"><ele></ele><time>2013-8-16T16:27:30Z</time></trkpt>
<trkpt lat="46.0860382486" lon="7.5332089048"><ele></ele><time>2013-8-16T16:27:33Z</time></trkpt>
<trkpt lat="46.0866829846" lon="7.5326873828"><ele></ele><time>2013-8-16T16:27:36Z</time></trkpt>
<trkpt lat="46.0868222918" lon="7.5325911585"><ele></ele><time>2013-8-16T16:27:39Z</time></trkpt>
<trkpt lat="46.0872554686" lon="7.5322868116"><ele></ele><time>2013-8-16T16:27:42Z</time></trkpt>
<trkpt lat="46.0874340031" lon="7.5322200917"><ele></ele><time>2013-8-16T16:27:45Z</time></trkpt>
<trkpt lat="46.0879820958" lon="7.5318543054"><ele></ele><time>2013-8-16T16:27:48Z</time></trkpt>
<trkpt lat="46.0882334691" lon="7.5317841489"><ele></ele><time>2013-8-16T16:27:51Z</time></trkpt>
<trkpt lat="46.0885492992" lon="7.5317313429"><ele></ele><time>2013-8-16T16:27:54Z</time></trkpt>
<trkpt lat="46.0886474513" lon="7.5317700673"><ele></ele><time>2013-8-16T16:27:57Z</time></trkpt>
<trkpt lat="46.0889052786" lon="7.5318572391"><ele></ele><time>2013-8-16T16:28:0Z</time></trkpt>
<trkpt lat="46.0892056022" lon="7.5317876693"><ele></ele><time>2013-8-16T16:28:3Z</time></trkpt>
<trkpt lat="46.0893746652" lon="7.5318967178"><ele></ele><time>2013-8-16T16:28:6Z</time></trkpt>
<trkpt lat="46.0893936083" lon="7.5319710653"><ele></ele><time>2013-8-16T16:28:9Z</time></trkpt>
<trkpt lat="46.0895503499" lon="7.5321020745"><ele></ele><time>2013-8-16T16:28:12Z</time></trkpt>
<trkpt lat="46.0896078497" lon="7.5321443193"><ele></ele><time>2013-8-16T16:28:15Z</time></trkpt>
<trkpt lat="46.0897868872" lon="7.5321400445"><ele></ele><time>2013-8-16T16:28:18Z</time></trkpt>
<trkpt lat="46.0900764819" lon="7.5320475083"><ele></ele><time>2013-8-16T16:28:21Z</time></trkpt>
<trkpt lat="46.0902809165" lon="7.5320651103"><ele></ele><time>2013-8-16T16:28:24Z</time></trkpt>
<trkpt lat="46.0903771408" lon="7.5320843887"><ele></ele><time>2013-8-16T16:28:27Z</time></trkpt>
<trkpt lat="46.0906475410" lon="7.5321617536"><ele></ele><time>2013-8-16T16:28:30Z</time></trkpt>
<trkpt lat="46.0907087289" lon="7.5321595743"><ele></ele><time>2013-8-16T16:28:33Z</time></trkpt>
<trkpt lat="46.0909720883" lon="7.5322154816"><ele></ele><time>2013-8-16T16:28:36Z</time></trkpt>
<trkpt lat="46.0912334360" lon="7.5321077742"><ele></ele><time>2013-8-16T16:28:39Z</time></trkpt>
<trkpt lat="46.0915108770" lon="7.5320475083"><ele></ele><time>2013-8-16T16:28:42Z</time></trkpt>
<trkpt lat="46.0918091051" lon="7.5320065208"><ele></ele><time>2013-8-16T16:28:45Z</time></trkpt>
<trkpt lat="46.0919968598" lon="7.5322323292"><ele></ele><time>2013-8-16T16:28:48Z</time></trkpt>
<trkpt lat="46.0923394281" lon="7.5320641883"><ele></ele><time>2013-8-16T16:28:51Z</time></trkpt>
<trkpt lat="46.0927234869" lon="7.5319565646"><ele></ele><time>2013-8-16T16:28:54Z</time></trkpt>
<trkpt lat="46.0930315219" lon="7.5318200234"><ele></ele><time>2013-8-16T16:28:57Z</time></trkpt>
<trkpt lat="46.0933331028" lon="7.5318594184"><ele></ele><time>2013-8-16T16:29:0Z</time></trkpt>
<trkpt lat="46.0936900042" lon="7.5318477675"><ele></ele><time>2013-8-16T16:29:3Z</time></trkpt>
<trkpt lat="46.0939457361" lon="7.5319160800"><ele></ele><time>2013-8-16T16:29:6Z</time></trkpt>
<trkpt lat="46.0939828679" lon="7.5319293234"><ele></ele><time>2013-8-16T16:29:9Z</time></trkpt>
<trkpt lat="46.0942202434" lon="7.5319970492"><ele></ele><time>2013-8-16T16:29:12Z</time></trkpt>
<trkpt lat="46.0944300424" lon="7.5320388749"><ele></ele><time>2013-8-16T16:29:15Z</time></trkpt>
<trkpt lat="46.0946086608" lon="7.5321563892"><ele></ele><time>2013-8-16T16:29:18Z</time></trkpt>
<trkpt lat="46.0946189705" lon="7.5321635976"><ele></ele><time>2013-8-16T16:29:21Z</time></trkpt>
<trkpt lat="46.0946853552" lon="7.5321780145"><ele></ele><time>2013-8-16T16:29:24Z</time></trkpt>
<trkpt lat="46.0947076511" lon="7.5321798585"><ele></ele><time>2013-8-16T16:29:27Z</time></trkpt>
<trkpt lat="46.0947527457" lon="7.5321905036"><ele></ele><time>2013-8-16T16:29:30Z</time></trkpt>
<trkpt lat="46.0949571803" lon="7.5321330037"><ele></ele><time>2013-8-16T16:29:33Z</time></trkpt>
<trkpt lat="46.0950014368" lon="7.5321176648"><ele></ele><time>2013-8-16T16:29:36Z</time></trkpt>
<trkpt lat="46.0951414146" lon="7.5322028250"><ele></ele><time>2013-8-16T16:29:39Z</time></trkpt>
<trkpt lat="46.0952212103" lon="7.5322688743"><ele></ele><time>2013-8-16T16:29:42Z</time></trkpt>
<trkpt lat="46.0952872597" lon="7.5322817825"><ele></ele><time>2013-8-16T16:29:45Z</time></trkpt>
<trkpt lat="46.0954486113" lon="7.5324073434"><ele></ele><time>2013-8-16T16:29:48Z</time></trkpt>
<trkpt lat="46.0956320073" lon="7.5324764103"><ele></ele><time>2013-8-16T16:29:51Z</time></trkpt>
<trkpt lat="46.0958507750" lon="7.5325528532"><ele></ele><time>2013-8-16T16:29:54Z</time></trkpt>
<trkpt lat="46.0960639268" lon="7.5326427072"><ele></ele><time>2013-8-16T16:29:57Z</time></trkpt>
<trkpt lat="46.0963278729" lon="7.5326168910"><ele></ele><time>2013-8-16T16:30:0Z</time></trkpt>
<trkpt lat="46.0963997897" lon="7.5326114427"><ele></ele><time>2013-8-16T16:30:3Z</time></trkpt>
<trkpt lat="46.0964520089" lon="7.5326171424"><ele></ele><time>2013-8-16T16:30:6Z</time></trkpt>
<trkpt lat="46.0967233311" lon="7.5326010492"><ele></ele><time>2013-8-16T16:30:9Z</time></trkpt>
<trkpt lat="46.0969344713" lon="7.5325313956"><ele></ele><time>2013-8-16T16:30:12Z</time></trkpt>
<trkpt lat="46.0971873533" lon="7.5325243548"><ele></ele><time>2013-8-16T16:30:15Z</time></trkpt>
<trkpt lat="46.0973855853" lon="7.5325251929"><ele></ele><time>2013-8-16T16:30:18Z</time></trkpt>
<trkpt lat="46.0975796264" lon="7.5325757358"><ele></ele><time>2013-8-16T16:30:21Z</time></trkpt>
<trkpt lat="46.0977939516" lon="7.5326442160"><ele></ele><time>2013-8-16T16:30:24Z</time></trkpt>
<trkpt lat="46.0978392139" lon="7.5326459762"><ele></ele><time>2013-8-16T16:30:27Z</time></trkpt>
<trkpt lat="46.0980236158" lon="7.5326969381"><ele></ele><time>2013-8-16T16:30:30Z</time></trkpt>
<trkpt lat="46.0981149785" lon="7.5326949265"><ele></ele><time>2013-8-16T16:30:33Z</time></trkpt>
<trkpt lat="46.0983499233" lon="7.5325706229"><ele></ele><time>2013-8-16T16:30:36Z</time></trkpt>
<trkpt lat="46.0985529330" lon="7.5325738918"><ele></ele><time>2013-8-16T16:30:39Z</time></trkpt>
<trkpt lat="46.0987516679" lon="7.5325033162"><ele></ele><time>2013-8-16T16:30:42Z</time></trkpt>
<trkpt lat="46.0988490656" lon="7.5324752368"><ele></ele><time>2013-8-16T16:30:45Z</time></trkpt>
<trkpt lat="46.0990337189" lon="7.5323968660"><ele></ele><time>2013-8-16T16:30:48Z</time></trkpt>
<trkpt lat="46.0991360620" lon="7.5323730614"><ele></ele><time>2013-8-16T16:30:51Z</time></trkpt>
<trkpt lat="46.0991412587" lon="7.5323679484"><ele></ele><time>2013-8-16T16:30:54Z</time></trkpt>
<trkpt lat="46.0991864372" lon="7.5323764980"><ele></ele><time>2013-8-16T16:30:57Z</time></trkpt>
<trkpt lat="46.0992525704" lon="7.5323743187"><ele></ele><time>2013-8-16T16:31:0Z</time></trkpt>
<trkpt lat="46.0992703401" lon="7.5323680323"><ele></ele><time>2013-8-16T16:31:3Z</time></trkpt>
<trkpt lat="46.0994922090" lon="7.5323655177"><ele></ele><time>2013-8-16T16:31:6Z</time></trkpt>
<trkpt lat="46.0996597633" lon="7.5323967822"><ele></ele><time>2013-8-16T16:31:9Z</time></trkpt>
<trkpt lat="46.0998315923" lon="7.5323999673"><ele></ele><time>2013-8-16T16:31:12Z</time></trkpt>
<trkpt lat="46.1000155751" lon="7.5323379412"><ele></ele><time>2013-8-16T16:31:15Z</time></trkpt>
<trkpt lat="46.1001380347" lon="7.5323241111"><ele></ele><time>2013-8-16T16:31:18Z</time></trkpt>
<trkpt lat="46.1002411321" lon="7.5323272962"><ele></ele><time>2013-8-16T16:31:21Z</time></trkpt>
<trkpt lat="46.1004180741" lon="7.5323038269"><ele></ele><time>2013-8-16T16:31:24Z</time></trkpt>
<trkpt lat="46.1006282084" lon="7.5322624203"><ele></ele><time>2013-8-16T16:31:27Z</time></trkpt>
<trkpt lat="46.1007981095" lon="7.5322742388"><ele></ele><time>2013-8-16T16:31:30Z</time></trkpt>
<trkpt lat="46.1009711958" lon="7.5323502626"><ele></ele><time>2013-8-16T16:31:33Z</time></trkpt>
<trkpt lat="46.1011426896" lon="7.5324251130"><ele></ele><time>2013-8-16T16:31:36Z</time></trkpt>
<trkpt lat="46.1013472918" lon="7.5324439723"><ele></ele><time>2013-8-16T16:31:39Z</time></trkpt>
<trkpt lat="46.1013987567" lon="7.5324769132"><ele></ele><time>2013-8-16T16:31:42Z</time></trkpt>
<trkpt lat="46.1016194522" lon="7.5324730575"><ele></ele><time>2013-8-16T16:31:45Z</time></trkpt>
<trkpt lat="46.1018046085" lon="7.5324080978"><ele></ele><time>2013-8-16T16:31:48Z</time></trkpt>
<trkpt lat="46.1018383037" lon="7.5323958602"><ele></ele><time>2013-8-16T16:31:51Z</time></trkpt>
<trkpt lat="46.1019631103" lon="7.5324050803"><ele></ele><time>2013-8-16T16:31:54Z</time></trkpt>
<trkpt lat="46.1019998230" lon="7.5324321538"><ele></ele><time>2013-8-16T16:31:57Z</time></trkpt>
<trkpt lat="46.1020102166" lon="7.5324777514"><ele></ele><time>2013-8-16T16:32:0Z</time></trkpt>
<trkpt lat="46.1019948777" lon="7.5324832834"><ele></ele><time>2013-8-16T16:32:3Z</time></trkpt>
<trkpt lat="46.1019408982" lon="7.5324737281"><ele></ele><time>2013-8-16T16:32:6Z</time></trkpt>
<trkpt lat="46.1018826440" lon="7.5325298030"><ele></ele><time>2013-8-16T16:32:9Z</time></trkpt>
<trkpt lat="46.1017724220" lon="7.5327570364"><ele></ele><time>2013-8-16T16:32:12Z</time></trkpt>
<trkpt lat="46.1017059535" lon="7.5328482315"><ele></ele><time>2013-8-16T16:32:15Z</time></trkpt>
<trkpt lat="46.1016436759" lon="7.5329005346"><ele></ele><time>2013-8-16T16:32:18Z</time></trkpt>
<trkpt lat="46.1016278341" lon="7.5329168793"><ele></ele><time>2013-8-16T16:32:21Z</time></trkpt>
<trkpt lat="46.1015254073" lon="7.5331053883"><ele></ele><time>2013-8-16T16:32:24Z</time></trkpt>
<trkpt lat="46.1014825758" lon="7.5331934821"><ele></ele><time>2013-8-16T16:32:27Z</time></trkpt>
<trkpt lat="46.1014845036" lon="7.5332018640"><ele></ele><time>2013-8-16T16:32:30Z</time></trkpt>
<trkpt lat="46.1015124153" lon="7.5332030375"><ele></ele><time>2013-8-16T16:32:33Z</time></trkpt>
<trkpt lat="46.1015973240" lon="7.5331779756"><ele></ele><time>2013-8-16T16:32:36Z</time></trkpt>
<trkpt lat="46.1016047001" lon="7.5331730302"><ele></ele><time>2013-8-16T16:32:39Z</time></trkpt>
<trkpt lat="46.1016933806" lon="7.5331433583"><ele></ele><time>2013-8-16T16:32:42Z</time></trkpt>
<trkpt lat="46.1016959790" lon="7.5331479684"><ele></ele><time>2013-8-16T16:32:45Z</time></trkpt>
<trkpt lat="46.1016969848" lon="7.5331431068"><ele></ele><time>2013-8-16T16:32:48Z</time></trkpt>
<trkpt lat="46.1017638724" lon="7.5331329647"><ele></ele><time>2013-8-16T16:32:51Z</time></trkpt>
<trkpt lat="46.1019948777" lon="7.5329955854"><ele></ele><time>2013-8-16T16:32:54Z</time></trkpt>
<trkpt lat="46.1022233684" lon="7.5329367444"><ele></ele><time>2013-8-16T16:32:57Z</time></trkpt>
<trkpt lat="46.1023189221" lon="7.5329525862"><ele></ele><time>2013-8-16T16:33:0Z</time></trkpt>
<trkpt lat="46.1023363564" lon="7.5329633150"><ele></ele><time>2013-8-16T16:33:3Z</time></trkpt>
<trkpt lat="46.1023512762" lon="7.5330328010"><ele></ele><time>2013-8-16T16:33:6Z</time></trkpt>
<trkpt lat="46.1023872346" lon="7.5331835076"><ele></ele><time>2013-8-16T16:33:9Z</time></trkpt>
<trkpt lat="46.1026177369" lon="7.5333685800"><ele></ele><time>2013-8-16T16:33:12Z</time></trkpt>
<trkpt lat="46.1026308965" lon="7.5333769619"><ele></ele><time>2013-8-16T16:33:15Z</time></trkpt>
<trkpt lat="46.1026481632" lon="7.5334020238"><ele></ele><time>2013-8-16T16:33:18Z</time></trkpt>
<trkpt lat="46.1026510131" lon="7.5334103219"><ele></ele><time>2013-8-16T16:33:21Z</time></trkpt>
<trkpt lat="46.1027229298" lon="7.5336306822"><ele></ele><time>2013-8-16T16:33:24Z</time></trkpt>
<trkpt lat="46.1027468182" lon="7.5336789619"><ele></ele><time>2013-8-16T16:33:27Z</time></trkpt>
<trkpt lat="46.1027807649" lon="7.5336811412"><ele></ele><time>2013-8-16T16:33:30Z</time></trkpt>
<trkpt lat="46.1028277874" lon="7.5336469430"><ele></ele><time>2013-8-16T16:33:33Z</time></trkpt>
<trkpt lat="46.1029965151" lon="7.5336452667"><ele></ele><time>2013-8-16T16:33:36Z</time></trkpt>
<trkpt lat="46.1031008698" lon="7.5335704163"><ele></ele><time>2013-8-16T16:33:39Z</time></trkpt>
<trkpt lat="46.1033478845" lon="7.5334322825"><ele></ele><time>2013-8-16T16:33:42Z</time></trkpt>
<trkpt lat="46.1034353916" lon="7.5334114954"><ele></ele><time>2013-8-16T16:33:45Z</time></trkpt>
<trkpt lat="46.1035332922" lon="7.5333151873"><ele></ele><time>2013-8-16T16:33:48Z</time></trkpt>
<trkpt lat="46.1036425922" lon="7.5332446955"><ele></ele><time>2013-8-16T16:33:51Z</time></trkpt>
<trkpt lat="46.1036652233" lon="7.5332326256"><ele></ele><time>2013-8-16T16:33:54Z</time></trkpt>
<trkpt lat="46.1037502158" lon="7.5332504790"><ele></ele><time>2013-8-16T16:33:57Z</time></trkpt>
<trkpt lat="46.1039533932" lon="7.5332376547"><ele></ele><time>2013-8-16T16:34:0Z</time></trkpt>
<trkpt lat="46.1041022558" lon="7.5331834238"><ele></ele><time>2013-8-16T16:34:3Z</time></trkpt>
<trkpt lat="46.1041859072" lon="7.5331073999"><ele></ele><time>2013-8-16T16:34:6Z</time></trkpt>
<trkpt lat="46.1042563990" lon="7.5329962559"><ele></ele><time>2013-8-16T16:34:9Z</time></trkpt>
<trkpt lat="46.1043004040" lon="7.5329486467"><ele></ele><time>2013-8-16T16:34:12Z</time></trkpt>
<trkpt lat="46.1043018289" lon="7.5329478085"><ele></ele><time>2013-8-16T16:34:15Z</time></trkpt>
<trkpt lat="46.1043880787" lon="7.5326123647"><ele></ele><time>2013-8-16T16:34:18Z</time></trkpt>
<trkpt lat="46.1044514459" lon="7.5324287172"><ele></ele><time>2013-8-16T16:34:21Z</time></trkpt>
<trkpt lat="46.1045106221" lon="7.5322581455"><ele></ele><time>2013-8-16T16:34:24Z</time></trkpt>
<trkpt lat="46.1045501847" lon="7.5320872385"><ele></ele><time>2013-8-16T16:34:27Z</time></trkpt>
<trkpt lat="46.1046191677" lon="7.5317202788"><ele></ele><time>2013-8-16T16:34:30Z</time></trkpt>
<trkpt lat="46.1046198383" lon="7.5317109749"><ele></ele><time>2013-8-16T16:34:33Z</time></trkpt>
<trkpt lat="46.1046251189" lon="7.5316989049"><ele></ele><time>2013-8-16T16:34:36Z</time></trkpt>
<trkpt lat="46.1046333332" lon="7.5316941272"><ele></ele><time>2013-8-16T16:34:39Z</time></trkpt>
<trkpt lat="46.1046440620" lon="7.5316838175"><ele></ele><time>2013-8-16T16:34:42Z</time></trkpt>
<trkpt lat="46.1047795974" lon="7.5315906107"><ele></ele><time>2013-8-16T16:34:45Z</time></trkpt>
<trkpt lat="46.1048547830" lon="7.5315422472"><ele></ele><time>2013-8-16T16:34:48Z</time></trkpt>
<trkpt lat="46.1051305477" lon="7.5313106552"><ele></ele><time>2013-8-16T16:34:51Z</time></trkpt>
<trkpt lat="46.1051727924" lon="7.5312867668"><ele></ele><time>2013-8-16T16:34:54Z</time></trkpt>
<trkpt lat="46.1053660791" lon="7.5310346391"><ele></ele><time>2013-8-16T16:34:57Z</time></trkpt>
<trkpt lat="46.1054347269" lon="7.5309426896"><ele></ele><time>2013-8-16T16:35:0Z</time></trkpt>
<trkpt lat="46.1054840963" lon="7.5309054740"><ele></ele><time>2013-8-16T16:35:3Z</time></trkpt>
<trkpt lat="46.1055373214" lon="7.5308365747"><ele></ele><time>2013-8-16T16:35:6Z</time></trkpt>
<trkpt lat="46.1055621319" lon="7.5307222456"><ele></ele><time>2013-8-16T16:35:9Z</time></trkpt>
<trkpt lat="46.1055831704" lon="7.5306536816"><ele></ele><time>2013-8-16T16:35:12Z</time></trkpt>
<trkpt lat="46.1056586076" lon="7.5305368379"><ele></ele><time>2013-8-16T16:35:15Z</time></trkpt>
<trkpt lat="46.1056682467" lon="7.5305058248"><ele></ele><time>2013-8-16T16:35:18Z</time></trkpt>
<trkpt lat="46.1054638121" lon="7.5305020530"><ele></ele><time>2013-8-16T16:35:21Z</time></trkpt>
<trkpt lat="46.1052360758" lon="7.5305018015"><ele></ele><time>2013-8-16T16:35:24Z</time></trkpt>
<trkpt lat="46.1051632371" lon="7.5305084232"><ele></ele><time>2013-8-16T16:35:27Z</time></trkpt>
<trkpt lat="46.1051724572" lon="7.5304878037"><ele></ele><time>2013-8-16T16:35:30Z</time></trkpt>
<trkpt lat="46.1051702779" lon="7.5304888934"><ele></ele><time>2013-8-16T16:35:33Z</time></trkpt>
<trkpt lat="46.1051962618" lon="7.5304075889"><ele></ele><time>2013-8-16T16:35:36Z</time></trkpt>
<trkpt lat="46.1052488163" lon="7.5301951915"><ele></ele><time>2013-8-16T16:35:39Z</time></trkpt>
<trkpt lat="46.1052489001" lon="7.5301627535"><ele></ele><time>2013-8-16T16:35:42Z</time></trkpt>
<trkpt lat="46.1051797494" lon="7.5301342551"><ele></ele><time>2013-8-16T16:35:45Z</time></trkpt>
<trkpt lat="46.1051344033" lon="7.5301376916"><ele></ele><time>2013-8-16T16:35:48Z</time></trkpt>
<trkpt lat="46.1051350739" lon="7.5301357638"><ele></ele><time>2013-8-16T16:35:51Z</time></trkpt>
<trkpt lat="46.1051287036" lon="7.5301272981"><ele></ele><time>2013-8-16T16:35:54Z</time></trkpt>
<trkpt lat="46.1051297933" lon="7.5301274657"><ele></ele><time>2013-8-16T16:35:57Z</time></trkpt>
<trkpt lat="46.1052147858" lon="7.5298645254"><ele></ele><time>2013-8-16T16:36:0Z</time></trkpt>
<trkpt lat="46.1053661630" lon="7.5296133198"><ele></ele><time>2013-8-16T16:36:3Z</time></trkpt>
<trkpt lat="46.1053887103" lon="7.5295170955"><ele></ele><time>2013-8-16T16:36:6Z</time></trkpt>
<trkpt lat="46.1052802484" lon="7.5293728430"><ele></ele><time>2013-8-16T16:36:9Z</time></trkpt>
<trkpt lat="46.1053120997" lon="7.5293171033"><ele></ele><time>2013-8-16T16:36:12Z</time></trkpt>
<trkpt lat="46.1051882152" lon="7.5292751100"><ele></ele><time>2013-8-16T16:36:15Z</time></trkpt>
<trkpt lat="46.1050959304" lon="7.5292275008"><ele></ele><time>2013-8-16T16:36:18Z</time></trkpt>
<trkpt lat="46.1052005365" lon="7.5290247425"><ele></ele><time>2013-8-16T16:36:21Z</time></trkpt>
<trkpt lat="46.1053042207" lon="7.5289443601"><ele></ele><time>2013-8-16T16:36:24Z</time></trkpt>
<trkpt lat="46.1052686814" lon="7.5288910512"><ele></ele><time>2013-8-16T16:36:27Z</time></trkpt>
<trkpt lat="46.1052979343" lon="7.5287983473"><ele></ele><time>2013-8-16T16:36:30Z</time></trkpt>
<trkpt lat="46.1052885465" lon="7.5287700165"><ele></ele><time>2013-8-16T16:36:33Z</time></trkpt>
<trkpt lat="46.1051819287" lon="7.5287510734"><ele></ele><time>2013-8-16T16:36:36Z</time></trkpt>
<trkpt lat="46.1051507480" lon="7.5287575275"><ele></ele><time>2013-8-16T16:36:39Z</time></trkpt>
<trkpt lat="46.1052248441" lon="7.5285950862"><ele></ele><time>2013-8-16T16:36:42Z</time></trkpt>
<trkpt lat="46.1052406020" lon="7.5285531767"><ele></ele><time>2013-8-16T16:36:45Z</time></trkpt>
<trkpt lat="46.1050316412" lon="7.5285401847"><ele></ele><time>2013-8-16T16:36:48Z</time></trkpt>
<trkpt lat="46.1049878877" lon="7.5285523385"><ele></ele><time>2013-8-16T16:36:51Z</time></trkpt>
<trkpt lat="46.1049722973" lon="7.5285498239"><ele></ele><time>2013-8-16T16:36:54Z</time></trkpt>
<trkpt lat="46.1049717944" lon="7.5285493210"><ele></ele><time>2013-8-16T16:36:57Z</time></trkpt>
<trkpt lat="46.1050901469" lon="7.5283550285"><ele></ele><time>2013-8-16T16:37:0Z</time></trkpt>
<trkpt lat="46.1052834336" lon="7.5281911623"><ele></ele><time>2013-8-16T16:37:3Z</time></trkpt>
<trkpt lat="46.1053733714" lon="7.5281163957"><ele></ele><time>2013-8-16T16:37:6Z</time></trkpt>
<trkpt lat="46.1053895485" lon="7.5280865561"><ele></ele><time>2013-8-16T16:37:9Z</time></trkpt>
<trkpt lat="46.1054682545" lon="7.5280192494"><ele></ele><time>2013-8-16T16:37:12Z</time></trkpt>
<trkpt lat="46.1056757066" lon="7.5279101171"><ele></ele><time>2013-8-16T16:37:15Z</time></trkpt>
<trkpt lat="46.1057776306" lon="7.5278243702"><ele></ele><time>2013-8-16T16:37:18Z</time></trkpt>
<trkpt lat="46.1059354618" lon="7.5277647749"><ele></ele><time>2013-8-16T16:37:21Z</time></trkpt>
<trkpt lat="46.1062370427" lon="7.5276013277"><ele></ele><time>2013-8-16T16:37:24Z</time></trkpt>
<trkpt lat="46.1063147429" lon="7.5275568198"><ele></ele><time>2013-8-16T16:37:27Z</time></trkpt>
<trkpt lat="46.1067134701" lon="7.5275262259"><ele></ele><time>2013-8-16T16:37:30Z</time></trkpt>
<trkpt lat="46.1070510093" lon="7.5273309276"><ele></ele><time>2013-8-16T16:37:33Z</time></trkpt>
<trkpt lat="46.1069824453" lon="7.5271313544"><ele></ele><time>2013-8-16T16:37:36Z</time></trkpt>
<trkpt lat="46.1067465786" lon="7.5268990081"><ele></ele><time>2013-8-16T16:37:39Z</time></trkpt>
<trkpt lat="46.1066705547" lon="7.5268925540"><ele></ele><time>2013-8-16T16:37:42Z</time></trkpt>
<trkpt lat="46.1066404637" lon="7.5268852618"><ele></ele><time>2013-8-16T16:37:45Z</time></trkpt>
<trkpt lat="46.1066287290" lon="7.5268688332"><ele></ele><time>2013-8-16T16:37:48Z</time></trkpt>
<trkpt lat="46.1066299025" lon="7.5268259179"><ele></ele><time>2013-8-16T16:37:51Z</time></trkpt>
<trkpt lat="46.1066889949" lon="7.5267337169"><ele></ele><time>2013-8-16T16:37:54Z</time></trkpt>
<trkpt lat="46.1066841334" lon="7.5267225690"><ele></ele><time>2013-8-16T16:37:57Z</time></trkpt>
<trkpt lat="46.1066853907" lon="7.5267201383"><ele></ele><time>2013-8-16T16:38:0Z</time></trkpt>
<trkpt lat="46.1066728178" lon="7.5267082360"><ele></ele><time>2013-8-16T16:38:3Z</time></trkpt>
<trkpt lat="46.1066767573" lon="7.5267245807"><ele></ele><time>2013-8-16T16:38:6Z</time></trkpt>
<trkpt lat="46.1066846363" lon="7.5267342199"><ele></ele><time>2013-8-16T16:38:9Z</time></trkpt>
<trkpt lat="46.1066789366" lon="7.5267291069"><ele></ele><time>2013-8-16T16:38:12Z</time></trkpt>
<trkpt lat="46.1066791043" lon="7.5267220661"><ele></ele><time>2013-8-16T16:38:15Z</time></trkpt>
<trkpt lat="46.1066833790" lon="7.5266958307"><ele></ele><time>2013-8-16T16:38:18Z</time></trkpt>
<trkpt lat="46.1066844687" lon="7.5266980100"><ele></ele><time>2013-8-16T16:38:21Z</time></trkpt>
<trkpt lat="46.1066977959" lon="7.5267037097"><ele></ele><time>2013-8-16T16:38:24Z</time></trkpt>
<trkpt lat="46.1067481712" lon="7.5267291907"><ele></ele><time>2013-8-16T16:38:27Z</time></trkpt>
<trkpt lat="46.1069345847" lon="7.5267752912"><ele></ele><time>2013-8-16T16:38:30Z</time></trkpt>
<trkpt lat="46.1072119419" lon="7.5268705934"><ele></ele><time>2013-8-16T16:38:33Z</time></trkpt>
<trkpt lat="46.1074477248" lon="7.5269744452"><ele></ele><time>2013-8-16T16:38:36Z</time></trkpt>
<trkpt lat="46.1077456176" lon="7.5270533189"><ele></ele><time>2013-8-16T16:38:39Z</time></trkpt>
<trkpt lat="46.1080126651" lon="7.5271642115"><ele></ele><time>2013-8-16T16:38:42Z</time></trkpt>
<trkpt lat="46.1083466001" lon="7.5269097369"><ele></ele><time>2013-8-16T16:38:45Z</time></trkpt>
<trkpt lat="46.1083802115" lon="7.5268959906"><ele></ele><time>2013-8-16T16:38:48Z</time></trkpt>
<trkpt lat="46.1084937025" lon="7.5263950042"><ele></ele><time>2013-8-16T16:38:51Z</time></trkpt>
<trkpt lat="46.1085279845" lon="7.5262252707"><ele></ele><time>2013-8-16T16:38:54Z</time></trkpt>
<trkpt lat="46.1086022481" lon="7.5259831175"><ele></ele><time>2013-8-16T16:38:57Z</time></trkpt>
<trkpt lat="46.1086402182" lon="7.5258512702"><ele></ele><time>2013-8-16T16:39:0Z</time></trkpt>
<trkpt lat="46.1088359356" lon="7.5256770104"><ele></ele><time>2013-8-16T16:39:3Z</time></trkpt>
<trkpt lat="46.1090988759" lon="7.5257144775"><ele></ele><time>2013-8-16T16:39:6Z</time></trkpt>
<trkpt lat="46.1093499977" lon="7.5258590654"><ele></ele><time>2013-8-16T16:39:9Z</time></trkpt>
<trkpt lat="46.1095283646" lon="7.5260631647"><ele></ele><time>2013-8-16T16:39:12Z</time></trkpt>
<trkpt lat="46.1097198073" lon="7.5260516815"><ele></ele><time>2013-8-16T16:39:15Z</time></trkpt>
<trkpt lat="46.1098014470" lon="7.5255642738"><ele></ele><time>2013-8-16T16:39:18Z</time></trkpt>
<trkpt lat="46.1097882874" lon="7.5252106413"><ele></ele><time>2013-8-16T16:39:21Z</time></trkpt>
<trkpt lat="46.1098740343" lon="7.5250704121"><ele></ele><time>2013-8-16T16:39:24Z</time></trkpt>
<trkpt lat="46.1099539138" lon="7.5249350443"><ele></ele><time>2013-8-16T16:39:27Z</time></trkpt>
<trkpt lat="46.1100780498" lon="7.5247589406"><ele></ele><time>2013-8-16T16:39:30Z</time></trkpt>
<trkpt lat="46.1103235558" lon="7.5243559387"><ele></ele><time>2013-8-16T16:39:33Z</time></trkpt>
<trkpt lat="46.1104123201" lon="7.5237962790"><ele></ele><time>2013-8-16T16:39:36Z</time></trkpt>
<trkpt lat="46.1103909463" lon="7.5233694725"><ele></ele><time>2013-8-16T16:39:39Z</time></trkpt>
<trkpt lat="46.1104292516" lon="7.5230274070"><ele></ele><time>2013-8-16T16:39:42Z</time></trkpt>
<trkpt lat="46.1104201991" lon="7.5230192766"><ele></ele><time>2013-8-16T16:39:45Z</time></trkpt>
<trkpt lat="46.1104279105" lon="7.5230289996"><ele></ele><time>2013-8-16T16:39:48Z</time></trkpt>
<trkpt lat="46.1104296707" lon="7.5230393931"><ele></ele><time>2013-8-16T16:39:51Z</time></trkpt>
<trkpt lat="46.1104276590" lon="7.5230416562"><ele></ele><time>2013-8-16T16:39:54Z</time></trkpt>
<trkpt lat="46.1103134137" lon="7.5233371183"><ele></ele><time>2013-8-16T16:39:57Z</time></trkpt>
<trkpt lat="46.1103022657" lon="7.5234008208"><ele></ele><time>2013-8-16T16:40:0Z</time></trkpt>
<trkpt lat="46.1102271639" lon="7.5237355102"><ele></ele><time>2013-8-16T16:40:3Z</time></trkpt>
<trkpt lat="46.1102017667" lon="7.5238922518"><ele></ele><time>2013-8-16T16:40:6Z</time></trkpt>
<trkpt lat="46.1100734398" lon="7.5241628196"><ele></ele><time>2013-8-16T16:40:9Z</time></trkpt>
<trkpt lat="46.1099544168" lon="7.5242427830"><ele></ele><time>2013-8-16T16:40:12Z</time></trkpt>
<trkpt lat="46.1098092422" lon="7.5244154502"><ele></ele><time>2013-8-16T16:40:15Z</time></trkpt>
<trkpt lat="46.1097913049" lon="7.5242813397"><ele></ele><time>2013-8-16T16:40:18Z</time></trkpt>
<trkpt lat="46.1100149341" lon="7.5236598216"><ele></ele><time>2013-8-16T16:40:21Z</time></trkpt>
<trkpt lat="46.1097823363" lon="7.5228879321"><ele></ele><time>2013-8-16T16:40:24Z</time></trkpt>
<trkpt lat="46.1096463818" lon="7.5225824118"><ele></ele><time>2013-8-16T16:40:27Z</time></trkpt>
<trkpt lat="46.1096008681" lon="7.5223866105"><ele></ele><time>2013-8-16T16:40:30Z</time></trkpt>
<trkpt lat="46.1094934959" lon="7.5222089980"><ele></ele><time>2013-8-16T16:40:33Z</time></trkpt>
<trkpt lat="46.1094932444" lon="7.5222711917"><ele></ele><time>2013-8-16T16:40:36Z</time></trkpt>
<trkpt lat="46.1095116846" lon="7.5226512272"><ele></ele><time>2013-8-16T16:40:39Z</time></trkpt>
<trkpt lat="46.1093906499" lon="7.5225507282"><ele></ele><time>2013-8-16T16:40:42Z</time></trkpt>
<trkpt lat="46.1092627421" lon="7.5221707765"><ele></ele><time>2013-8-16T16:40:45Z</time></trkpt>
<trkpt lat="46.1092149653" lon="7.5220349897"><ele></ele><time>2013-8-16T16:40:48Z</time></trkpt>
<trkpt lat="46.1093030591" lon="7.5218176469"><ele></ele><time>2013-8-16T16:40:51Z</time></trkpt>
<trkpt lat="46.1092458945" lon="7.5216999650"><ele></ele><time>2013-8-16T16:40:54Z</time></trkpt>
<trkpt lat="46.1090343352" lon="7.5218689442"><ele></ele><time>2013-8-16T16:40:57Z</time></trkpt>
<trkpt lat="46.1090444773" lon="7.5228060409"><ele></ele><time>2013-8-16T16:41:0Z</time></trkpt>
<trkpt lat="46.1090798490" lon="7.5231652893"><ele></ele><time>2013-8-16T16:41:3Z</time></trkpt>
<trkpt lat="46.1089178268" lon="7.5235606637"><ele></ele><time>2013-8-16T16:41:6Z</time></trkpt>
<trkpt lat="46.1088537052" lon="7.5235808641"><ele></ele><time>2013-8-16T16:41:9Z</time></trkpt>
<trkpt lat="46.1087646894" lon="7.5234351866"><ele></ele><time>2013-8-16T16:41:12Z</time></trkpt>
<trkpt lat="46.1087135598" lon="7.5233464222"><ele></ele><time>2013-8-16T16:41:15Z</time></trkpt>
<trkpt lat="46.1082831491" lon="7.5230994914"><ele></ele><time>2013-8-16T16:41:18Z</time></trkpt>
<trkpt lat="46.1082194466" lon="7.5230921153"><ele></ele><time>2013-8-16T16:41:21Z</time></trkpt>
<trkpt lat="46.1081062071" lon="7.5230953842"><ele></ele><time>2013-8-16T16:41:24Z</time></trkpt>
<trkpt lat="46.1078707594" lon="7.5232694764"><ele></ele><time>2013-8-16T16:41:27Z</time></trkpt>
<trkpt lat="46.1076904647" lon="7.5234864000"><ele></ele><time>2013-8-16T16:41:30Z</time></trkpt>
<trkpt lat="46.1074214894" lon="7.5235937722"><ele></ele><time>2013-8-16T16:41:33Z</time></trkpt>
<trkpt lat="46.1074005347" lon="7.5235407986"><ele></ele><time>2013-8-16T16:41:36Z</time></trkpt>
<trkpt lat="46.1070834473" lon="7.5231175963"><ele></ele><time>2013-8-16T16:41:39Z</time></trkpt>
<trkpt lat="46.1068804376" lon="7.5228386465"><ele></ele><time>2013-8-16T16:41:42Z</time></trkpt>
<trkpt lat="46.1062702350" lon="7.5223418511"><ele></ele><time>2013-8-16T16:41:45Z</time></trkpt>
<trkpt lat="46.1061113980" lon="7.5221647415"><ele></ele><time>2013-8-16T16:41:48Z</time></trkpt>
<trkpt lat="46.1058595218" lon="7.5220481493"><ele></ele><time>2013-8-16T16:41:51Z</time></trkpt>
<trkpt lat="46.1055576894" lon="7.5219598040"><ele></ele><time>2013-8-16T16:41:54Z</time></trkpt>
<trkpt lat="46.1051770672" lon="7.5220964290"><ele></ele><time>2013-8-16T16:41:57Z</time></trkpt>
<trkpt lat="46.1048572138" lon="7.5225948170"><ele></ele><time>2013-8-16T16:42:0Z</time></trkpt>
<trkpt lat="46.1046210118" lon="7.5226722658"><ele></ele><time>2013-8-16T16:42:3Z</time></trkpt>
<trkpt lat="46.1043818761" lon="7.5224533305"><ele></ele><time>2013-8-16T16:42:6Z</time></trkpt>
<trkpt lat="46.1042253021" lon="7.5224127620"><ele></ele><time>2013-8-16T16:42:9Z</time></trkpt>
<trkpt lat="46.1041512061" lon="7.5222526677"><ele></ele><time>2013-8-16T16:42:12Z</time></trkpt>
<trkpt lat="46.1043775175" lon="7.5222409330"><ele></ele><time>2013-8-16T16:42:15Z</time></trkpt>
<trkpt lat="46.1045022402" lon="7.5222771429"><ele></ele><time>2013-8-16T16:42:18Z</time></trkpt>
<trkpt lat="46.1046749912" lon="7.5221824273"><ele></ele><time>2013-8-16T16:42:21Z</time></trkpt>
<trkpt lat="46.1047551222" lon="7.5219592173"><ele></ele><time>2013-8-16T16:42:24Z</time></trkpt>
<trkpt lat="46.1047417112" lon="7.5215541199"><ele></ele><time>2013-8-16T16:42:27Z</time></trkpt>
<trkpt lat="46.1046702974" lon="7.5212550536"><ele></ele><time>2013-8-16T16:42:30Z</time></trkpt>
<trkpt lat="46.1046171561" lon="7.5210871641"><ele></ele><time>2013-8-16T16:42:33Z</time></trkpt>
<trkpt lat="46.1046797689" lon="7.5209305063"><ele></ele><time>2013-8-16T16:42:36Z</time></trkpt>
<trkpt lat="46.1054402590" lon="7.5208143331"><ele></ele><time>2013-8-16T16:42:39Z</time></trkpt>
<trkpt lat="46.1061315984" lon="7.5207011774"><ele></ele><time>2013-8-16T16:42:42Z</time></trkpt>
<trkpt lat="46.1066971254" lon="7.5207259879"><ele></ele><time>2013-8-16T16:42:45Z</time></trkpt>
<trkpt lat="46.1068918370" lon="7.5209532212"><ele></ele><time>2013-8-16T16:42:48Z</time></trkpt>
<trkpt lat="46.1072097626" lon="7.5211163331"><ele></ele><time>2013-8-16T16:42:51Z</time></trkpt>
<trkpt lat="46.1072901450" lon="7.5207985751"><ele></ele><time>2013-8-16T16:42:54Z</time></trkpt>
<trkpt lat="46.1071825214" lon="7.5204462837"><ele></ele><time>2013-8-16T16:42:57Z</time></trkpt>
<trkpt lat="46.1070915777" lon="7.5199882127"><ele></ele><time>2013-8-16T16:43:0Z</time></trkpt>
<trkpt lat="46.1070563737" lon="7.5197356660"><ele></ele><time>2013-8-16T16:43:3Z</time></trkpt>
<trkpt lat="46.1070442200" lon="7.5197038986"><ele></ele><time>2013-8-16T16:43:6Z</time></trkpt>
<trkpt lat="46.1069577187" lon="7.5194038264"><ele></ele><time>2013-8-16T16:43:9Z</time></trkpt>
<trkpt lat="46.1070211697" lon="7.5190298259"><ele></ele><time>2013-8-16T16:43:12Z</time></trkpt>
<trkpt lat="46.1071384326" lon="7.5188740902"><ele></ele><time>2013-8-16T16:43:15Z</time></trkpt>
<trkpt lat="46.1073131952" lon="7.5183017738"><ele></ele><time>2013-8-16T16:43:18Z</time></trkpt>
<trkpt lat="46.1073580384" lon="7.5178108457"><ele></ele><time>2013-8-16T16:43:21Z</time></trkpt>
<trkpt lat="46.1073269416" lon="7.5175905693"><ele></ele><time>2013-8-16T16:43:24Z</time></trkpt>
<trkpt lat="46.1073141173" lon="7.5176500808"><ele></ele><time>2013-8-16T16:43:27Z</time></trkpt>
<trkpt lat="46.1072227545" lon="7.5180343073"><ele></ele><time>2013-8-16T16:43:30Z</time></trkpt>
<trkpt lat="46.1069815233" lon="7.5184938870"><ele></ele><time>2013-8-16T16:43:33Z</time></trkpt>
<trkpt lat="46.1067417171" lon="7.5187025126"><ele></ele><time>2013-8-16T16:43:36Z</time></trkpt>
<trkpt lat="46.1065653618" lon="7.5188888423"><ele></ele><time>2013-8-16T16:43:39Z</time></trkpt>
<trkpt lat="46.1064868234" lon="7.5194034912"><ele></ele><time>2013-8-16T16:43:42Z</time></trkpt>
<trkpt lat="46.1064660363" lon="7.5197034795"><ele></ele><time>2013-8-16T16:43:45Z</time></trkpt>
<trkpt lat="46.1064696405" lon="7.5197194889"><ele></ele><time>2013-8-16T16:43:48Z</time></trkpt>
<trkpt lat="46.1064659525" lon="7.5197219197"><ele></ele><time>2013-8-16T16:43:51Z</time></trkpt>
<trkpt lat="46.1064716522" lon="7.5197130349"><ele></ele><time>2013-8-16T16:43:54Z</time></trkpt>
<trkpt lat="46.1064751726" lon="7.5197168905"><ele></ele><time>2013-8-16T16:43:57Z</time></trkpt>
<trkpt lat="46.1064832192" lon="7.5197124481"><ele></ele><time>2013-8-16T16:44:0Z</time></trkpt>
<trkpt lat="46.1064861529" lon="7.5197131187"><ele></ele><time>2013-8-16T16:44:3Z</time></trkpt>
<trkpt lat="46.1064888351" lon="7.5197101012"><ele></ele><time>2013-8-16T16:44:6Z</time></trkpt>
<trkpt lat="46.1064807046" lon="7.5197147112"><ele></ele><time>2013-8-16T16:44:9Z</time></trkpt>
<trkpt lat="46.1063263100" lon="7.5197096821"><ele></ele><time>2013-8-16T16:44:12Z</time></trkpt>
<trkpt lat="46.1060228851" lon="7.5195581373"><ele></ele><time>2013-8-16T16:44:15Z</time></trkpt>
<trkpt lat="46.1057660636" lon="7.5194177404"><ele></ele><time>2013-8-16T16:44:18Z</time></trkpt>
<trkpt lat="46.1056320369" lon="7.5192182511"><ele></ele><time>2013-8-16T16:44:21Z</time></trkpt>
<trkpt lat="46.1053721141" lon="7.5188021734"><ele></ele><time>2013-8-16T16:44:24Z</time></trkpt>
<trkpt lat="46.1053033825" lon="7.5187005848"><ele></ele><time>2013-8-16T16:44:27Z</time></trkpt>
<trkpt lat="46.1046457384" lon="7.5183487963"><ele></ele><time>2013-8-16T16:44:30Z</time></trkpt>
<trkpt lat="46.1045268830" lon="7.5183052942"><ele></ele><time>2013-8-16T16:44:33Z</time></trkpt>
<trkpt lat="46.1041762680" lon="7.5184503011"><ele></ele><time>2013-8-16T16:44:36Z</time></trkpt>
<trkpt lat="46.1040538084" lon="7.5185442623"><ele></ele><time>2013-8-16T16:44:39Z</time></trkpt>
<trkpt lat="46.1035258323" lon="7.5188605953"><ele></ele><time>2013-8-16T16:44:42Z</time></trkpt>
<trkpt lat="46.1033718567" lon="7.5187058654"><ele></ele><time>2013-8-16T16:44:45Z</time></trkpt>
<trkpt lat="46.1032339744" lon="7.5183643866"><ele></ele><time>2013-8-16T16:44:48Z</time></trkpt>
<trkpt lat="46.1029481515" lon="7.5185159314"><ele></ele><time>2013-8-16T16:44:51Z</time></trkpt>
<trkpt lat="46.1025919206" lon="7.5185385626"><ele></ele><time>2013-8-16T16:44:54Z</time></trkpt>
<trkpt lat="46.1021463387" lon="7.5184888579"><ele></ele><time>2013-8-16T16:44:57Z</time></trkpt>
<trkpt lat="46.1018576659" lon="7.5186389778"><ele></ele><time>2013-8-16T16:45:0Z</time></trkpt>
<trkpt lat="46.1019378807" lon="7.5183774624"><ele></ele><time>2013-8-16T16:45:3Z</time></trkpt>
<trkpt lat="46.1022854783" lon="7.5182202179"><ele></ele><time>2013-8-16T16:45:6Z</time></trkpt>
<trkpt lat="46.1024381965" lon="7.5180106703"><ele></ele><time>2013-8-16T16:45:9Z</time></trkpt>
<trkpt lat="46.1024776753" lon="7.5178685132"><ele></ele><time>2013-8-16T16:45:12Z</time></trkpt>
<trkpt lat="46.1026963592" lon="7.5176401064"><ele></ele><time>2013-8-16T16:45:15Z</time></trkpt>
<trkpt lat="46.1029556114" lon="7.5175185688"><ele></ele><time>2013-8-16T16:45:18Z</time></trkpt>
<trkpt lat="46.1030979361" lon="7.5173370168"><ele></ele><time>2013-8-16T16:45:21Z</time></trkpt>
<trkpt lat="46.1033135187" lon="7.5172089413"><ele></ele><time>2013-8-16T16:45:24Z</time></trkpt>
<trkpt lat="46.1035822425" lon="7.5169335119"><ele></ele><time>2013-8-16T16:45:27Z</time></trkpt>
<trkpt lat="46.1035592761" lon="7.5167654548"><ele></ele><time>2013-8-16T16:45:30Z</time></trkpt>
<trkpt lat="46.1036955658" lon="7.5163889397"><ele></ele><time>2013-8-16T16:45:33Z</time></trkpt>
<trkpt lat="46.1037446000" lon="7.5164072122"><ele></ele><time>2013-8-16T16:45:36Z</time></trkpt>
<trkpt lat="46.1041398067" lon="7.5163605250"><ele></ele><time>2013-8-16T16:45:39Z</time></trkpt>
<trkpt lat="46.1046798527" lon="7.5162046216"><ele></ele><time>2013-8-16T16:45:42Z</time></trkpt>
<trkpt lat="46.1048294697" lon="7.5163044501"><ele></ele><time>2013-8-16T16:45:45Z</time></trkpt>
<trkpt lat="46.1051411089" lon="7.5161762070"><ele></ele><time>2013-8-16T16:45:48Z</time></trkpt>
<trkpt lat="46.1051427852" lon="7.5161032844"><ele></ele><time>2013-8-16T16:45:51Z</time></trkpt>
<trkpt lat="46.1052265204" lon="7.5154987816"><ele></ele><time>2013-8-16T16:45:54Z</time></trkpt>
<trkpt lat="46.1053086631" lon="7.5151081849"><ele></ele><time>2013-8-16T16:45:57Z</time></trkpt>
<trkpt lat="46.1056038737" lon="7.5146344397"><ele></ele><time>2013-8-16T16:46:0Z</time></trkpt>
<trkpt lat="46.1056754552" lon="7.5144393090"><ele></ele><time>2013-8-16T16:46:3Z</time></trkpt>
<trkpt lat="46.1056601163" lon="7.5140818208"><ele></ele><time>2013-8-16T16:46:6Z</time></trkpt>
<trkpt lat="46.1056234036" lon="7.5139692519"><ele></ele><time>2013-8-16T16:46:9Z</time></trkpt>
<trkpt lat="46.1056233197" lon="7.5137281045"><ele></ele><time>2013-8-16T16:46:12Z</time></trkpt>
<trkpt lat="46.1057094019" lon="7.5135478936"><ele></ele><time>2013-8-16T16:46:15Z</time></trkpt>
<trkpt lat="46.1058929656" lon="7.5135119352"><ele></ele><time>2013-8-16T16:46:18Z</time></trkpt>
<trkpt lat="46.1057595257" lon="7.5134059042"><ele></ele><time>2013-8-16T16:46:21Z</time></trkpt>
<trkpt lat="46.1054811627" lon="7.5132413674"><ele></ele><time>2013-8-16T16:46:24Z</time></trkpt>
<trkpt lat="46.1052866187" lon="7.5133206602"><ele></ele><time>2013-8-16T16:46:27Z</time></trkpt>
<trkpt lat="46.1046002246" lon="7.5143555738"><ele></ele><time>2013-8-16T16:46:30Z</time></trkpt>
<trkpt lat="46.1040144134" lon="7.5146355294"><ele></ele><time>2013-8-16T16:46:33Z</time></trkpt>
<trkpt lat="46.1039400660" lon="7.5145983137"><ele></ele><time>2013-8-16T16:46:36Z</time></trkpt>
<trkpt lat="46.1037931312" lon="7.5145148300"><ele></ele><time>2013-8-16T16:46:39Z</time></trkpt>
<trkpt lat="46.1034610402" lon="7.5144749321"><ele></ele><time>2013-8-16T16:46:42Z</time></trkpt>
<trkpt lat="46.1028598901" lon="7.5141850021"><ele></ele><time>2013-8-16T16:46:45Z</time></trkpt>
<trkpt lat="46.1024008971" lon="7.5138351414"><ele></ele><time>2013-8-16T16:46:48Z</time></trkpt>
<trkpt lat="46.1017830670" lon="7.5139674917"><ele></ele><time>2013-8-16T16:46:51Z</time></trkpt>
<trkpt lat="46.1005418748" lon="7.5139126740"><ele></ele><time>2013-8-16T16:46:54Z</time></trkpt>
<trkpt lat="46.0998210311" lon="7.5142464414"><ele></ele><time>2013-8-16T16:46:57Z</time></trkpt>
<trkpt lat="46.0992731899" lon="7.5146868266"><ele></ele><time>2013-8-16T16:47:0Z</time></trkpt>
<trkpt lat="46.0989826731" lon="7.5147375371"><ele></ele><time>2013-8-16T16:47:3Z</time></trkpt>
<trkpt lat="46.0986249335" lon="7.5149425585"><ele></ele><time>2013-8-16T16:47:6Z</time></trkpt>
<trkpt lat="46.0985748097" lon="7.5149420556"><ele></ele><time>2013-8-16T16:47:9Z</time></trkpt>
<trkpt lat="46.0985679366" lon="7.5149418879"><ele></ele><time>2013-8-16T16:47:12Z</time></trkpt>
<trkpt lat="46.0985674337" lon="7.5149485096"><ele></ele><time>2013-8-16T16:47:15Z</time></trkpt>
<trkpt lat="46.0984846205" lon="7.5150749926"><ele></ele><time>2013-8-16T16:47:18Z</time></trkpt>
<trkpt lat="46.0983550362" lon="7.5152843725"><ele></ele><time>2013-8-16T16:47:21Z</time></trkpt>
<trkpt lat="46.0981775913" lon="7.5155110192"><ele></ele><time>2013-8-16T16:47:24Z</time></trkpt>
<trkpt lat="46.0977304168" lon="7.5157380011"><ele></ele><time>2013-8-16T16:47:27Z</time></trkpt>
<trkpt lat="46.0968229920" lon="7.5158266816"><ele></ele><time>2013-8-16T16:47:30Z</time></trkpt>
<trkpt lat="46.0965211596" lon="7.5158799067"><ele></ele><time>2013-8-16T16:47:33Z</time></trkpt>
<trkpt lat="46.0962052457" lon="7.5161442719"><ele></ele><time>2013-8-16T16:47:36Z</time></trkpt>
<trkpt lat="46.0958507750" lon="7.5162580982"><ele></ele><time>2013-8-16T16:47:39Z</time></trkpt>
<trkpt lat="46.0955796205" lon="7.5162018556"><ele></ele><time>2013-8-16T16:47:42Z</time></trkpt>
<trkpt lat="46.0954501200" lon="7.5161633827"><ele></ele><time>2013-8-16T16:47:45Z</time></trkpt>
<trkpt lat="46.0953181051" lon="7.5160908792"><ele></ele><time>2013-8-16T16:47:48Z</time></trkpt>
<trkpt lat="46.0952062905" lon="7.5160130113"><ele></ele><time>2013-8-16T16:47:51Z</time></trkpt>
<trkpt lat="46.0949433502" lon="7.5158932339"><ele></ele><time>2013-8-16T16:47:54Z</time></trkpt>
<trkpt lat="46.0949273407" lon="7.5158864446"><ele></ele><time>2013-8-16T16:47:57Z</time></trkpt>
<trkpt lat="46.0947496444" lon="7.5157477241"><ele></ele><time>2013-8-16T16:48:0Z</time></trkpt>
<trkpt lat="46.0946322139" lon="7.5157193094"><ele></ele><time>2013-8-16T16:48:3Z</time></trkpt>
<trkpt lat="46.0944168828" lon="7.5156758912"><ele></ele><time>2013-8-16T16:48:6Z</time></trkpt>
<trkpt lat="46.0942738038" lon="7.5157074071"><ele></ele><time>2013-8-16T16:48:9Z</time></trkpt>
<trkpt lat="46.0941676889" lon="7.5157099217"><ele></ele><time>2013-8-16T16:48:12Z</time></trkpt>
<trkpt lat="46.0937503539" lon="7.5157419406"><ele></ele><time>2013-8-16T16:48:15Z</time></trkpt>
<trkpt lat="46.0933519620" lon="7.5160120055"><ele></ele><time>2013-8-16T16:48:18Z</time></trkpt>
<trkpt lat="46.0931990761" lon="7.5160088204"><ele></ele><time>2013-8-16T16:48:21Z</time></trkpt>
<trkpt lat="46.0930388980" lon="7.5160081498"><ele></ele><time>2013-8-16T16:48:24Z</time></trkpt>
<trkpt lat="46.0929058772" lon="7.5159653183"><ele></ele><time>2013-8-16T16:48:27Z</time></trkpt>
<trkpt lat="46.0928125866" lon="7.5159422681"><ele></ele><time>2013-8-16T16:48:30Z</time></trkpt>
<trkpt lat="46.0927591100" lon="7.5158922281"><ele></ele><time>2013-8-16T16:48:33Z</time></trkpt>
<trkpt lat="46.0926594492" lon="7.5157993566"><ele></ele><time>2013-8-16T16:48:36Z</time></trkpt>
<trkpt lat="46.0925581958" lon="7.5157292001"><ele></ele><time>2013-8-16T16:48:39Z</time></trkpt>
<trkpt lat="46.0922335647" lon="7.5157162081"><ele></ele><time>2013-8-16T16:48:42Z</time></trkpt>
<trkpt lat="46.0919495020" lon="7.5158210658"><ele></ele><time>2013-8-16T16:48:45Z</time></trkpt>
<trkpt lat="46.0917639267" lon="7.5158265978"><ele></ele><time>2013-8-16T16:48:48Z</time></trkpt>
<trkpt lat="46.0915739089" lon="7.5158413500"><ele></ele><time>2013-8-16T16:48:51Z</time></trkpt>
<trkpt lat="46.0912574083" lon="7.5159433577"><ele></ele><time>2013-8-16T16:48:54Z</time></trkpt>
<trkpt lat="46.0907373950" lon="7.5161129236"><ele></ele><time>2013-8-16T16:48:57Z</time></trkpt>
<trkpt lat="46.0904559307" lon="7.5163658056"><ele></ele><time>2013-8-16T16:49:0Z</time></trkpt>
<trkpt lat="46.0901865363" lon="7.5165697373"><ele></ele><time>2013-8-16T16:49:3Z</time></trkpt>
<trkpt lat="46.0899157170" lon="7.5167639460"><ele></ele><time>2013-8-16T16:49:6Z</time></trkpt>
<trkpt lat="46.0896261223" lon="7.5168702286"><ele></ele><time>2013-8-16T16:49:9Z</time></trkpt>
<trkpt lat="46.0894470010" lon="7.5168969668"><ele></ele><time>2013-8-16T16:49:12Z</time></trkpt>
<trkpt lat="46.0892939474" lon="7.5169610884"><ele></ele><time>2013-8-16T16:49:15Z</time></trkpt>
<trkpt lat="46.0891332664" lon="7.5169967953"><ele></ele><time>2013-8-16T16:49:18Z</time></trkpt>
<trkpt lat="46.0889584199" lon="7.5170454103"><ele></ele><time>2013-8-16T16:49:21Z</time></trkpt>
<trkpt lat="46.0888183583" lon="7.5170857273"><ele></ele><time>2013-8-16T16:49:24Z</time></trkpt>
<trkpt lat="46.0886442661" lon="7.5171208475"><ele></ele><time>2013-8-16T16:49:27Z</time></trkpt>
<trkpt lat="46.0885269195" lon="7.5171628408"><ele></ele><time>2013-8-16T16:49:30Z</time></trkpt>
<trkpt lat="46.0884809028" lon="7.5171887409"><ele></ele><time>2013-8-16T16:49:33Z</time></trkpt>
<trkpt lat="46.0882903822" lon="7.5172762480"><ele></ele><time>2013-8-16T16:49:36Z</time></trkpt>
<trkpt lat="46.0882478021" lon="7.5172797684"><ele></ele><time>2013-8-16T16:49:39Z</time></trkpt>
<trkpt lat="46.0880240891" lon="7.5174691156"><ele></ele><time>2013-8-16T16:49:42Z</time></trkpt>
<trkpt lat="46.0879927408" lon="7.5174957700"><ele></ele><time>2013-8-16T16:49:45Z</time></trkpt>
<trkpt lat="46.0879660863" lon="7.5174959376"><ele></ele><time>2013-8-16T16:49:48Z</time></trkpt>
<trkpt lat="46.0878608935" lon="7.5174001325"><ele></ele><time>2013-8-16T16:49:51Z</time></trkpt>
<trkpt lat="46.0878309701" lon="7.5173964445"><ele></ele><time>2013-8-16T16:49:54Z</time></trkpt>
<trkpt lat="46.0876948480" lon="7.5174331572"><ele></ele><time>2013-8-16T16:49:57Z</time></trkpt>
<trkpt lat="46.0875707958" lon="7.5174567103"><ele></ele><time>2013-8-16T16:50:0Z</time></trkpt>
<trkpt lat="46.0875688680" lon="7.5174475741"><ele></ele><time>2013-8-16T16:50:3Z</time></trkpt>
<trkpt lat="46.0875602346" lon="7.5174272060"><ele></ele><time>2013-8-16T16:50:6Z</time></trkpt>
<trkpt lat="46.0875386093" lon="7.5173883140"><ele></ele><time>2013-8-16T16:50:9Z</time></trkpt>
<trkpt lat="46.0874764156" lon="7.5173313171"><ele></ele><time>2013-8-16T16:50:12Z</time></trkpt>
<trkpt lat="46.0874053370" lon="7.5174794253"><ele></ele><time>2013-8-16T16:50:15Z</time></trkpt>
<trkpt lat="46.0873457417" lon="7.5176192354"><ele></ele><time>2013-8-16T16:50:18Z</time></trkpt>
<trkpt lat="46.0872164927" lon="7.5178315490"><ele></ele><time>2013-8-16T16:50:21Z</time></trkpt>
<trkpt lat="46.0871736612" lon="7.5180264283"><ele></ele><time>2013-8-16T16:50:24Z</time></trkpt>
<trkpt lat="46.0871951189" lon="7.5180329662"><ele></ele><time>2013-8-16T16:50:27Z</time></trkpt>
<trkpt lat="46.0872722324" lon="7.5180730317"><ele></ele><time>2013-8-16T16:50:30Z</time></trkpt>
<trkpt lat="46.0872710589" lon="7.5180592015"><ele></ele><time>2013-8-16T16:50:33Z</time></trkpt>
<trkpt lat="46.0872165766" lon="7.5181015301"><ele></ele><time>2013-8-16T16:50:36Z</time></trkpt>
<trkpt lat="46.0872268863" lon="7.5181016978"><ele></ele><time>2013-8-16T16:50:39Z</time></trkpt>
<trkpt lat="46.0872662812" lon="7.5181094091"><ele></ele><time>2013-8-16T16:50:42Z</time></trkpt>
<trkpt lat="46.0873050895" lon="7.5180431921"><ele></ele><time>2013-8-16T16:50:45Z</time></trkpt>
<trkpt lat="46.0873011500" lon="7.5180540048"><ele></ele><time>2013-8-16T16:50:48Z</time></trkpt>
<trkpt lat="46.0872926004" lon="7.5180420186"><ele></ele><time>2013-8-16T16:50:51Z</time></trkpt>
<trkpt lat="46.0872844700" lon="7.5180369057"><ele></ele><time>2013-8-16T16:50:54Z</time></trkpt>
<trkpt lat="46.0872760881" lon="7.5180338044"><ele></ele><time>2013-8-16T16:50:57Z</time></trkpt>
<trkpt lat="46.0872613359" lon="7.5180255063"><ele></ele><time>2013-8-16T16:51:0Z</time></trkpt>
<trkpt lat="46.0872505233" lon="7.5180193037"><ele></ele><time>2013-8-16T16:51:3Z</time></trkpt>
<trkpt lat="46.0872520320" lon="7.5180167053"><ele></ele><time>2013-8-16T16:51:6Z</time></trkpt>
<trkpt lat="46.0872669518" lon="7.5180265121"><ele></ele><time>2013-8-16T16:51:9Z</time></trkpt>
<trkpt lat="46.0872589890" lon="7.5180334691"><ele></ele><time>2013-8-16T16:51:12Z</time></trkpt>
<trkpt lat="46.0872603301" lon="7.5180325471"><ele></ele><time>2013-8-16T16:51:15Z</time></trkpt>
<trkpt lat="46.0872589052" lon="7.5180383306"><ele></ele><time>2013-8-16T16:51:18Z</time></trkpt>
</trkseg></trk></gpx>